<?xml version='1.0' encoding='UTF-8'?><gpx version="1.1" creator="JPX - https://github.com/jenetics/jpx" xmlns="http://www.topografix.com/GPX/1/1"><trk><trkseg><trkpt lat="45.5329291" lon="9.2738084"><ele>137.33333333333334</ele><time>2026-04-30T16:14:07.606Z</time></trkpt><trkpt lat="45.5328229" lon="9.2735893"><ele>136.66666666666669</ele><time>2026-04-30T16:14:08.606Z</time></trkpt><trkpt lat="45.5327153" lon="9.2733683"><ele>136.0</ele><time>2026-04-30T16:14:09.606Z</time></trkpt><trkpt lat="45.5326088" lon="9.2731457"><ele>135.66666666666669</ele><time>2026-04-30T16:14:10.607Z</time></trkpt><trkpt lat="45.5325009" lon="9.272922"><ele>135.33333333333334</ele><time>2026-04-30T16:14:11.606Z</time></trkpt><trkpt lat="45.532393" lon="9.2726981"><ele>135.0</ele><time>2026-04-30T16:14:12.606Z</time></trkpt><trkpt lat="45.5322824" lon="9.2724722"><ele>135.66666666666666</ele><time>2026-04-30T16:14:13.606Z</time></trkpt><trkpt lat="45.5321702" lon="9.2722391"><ele>136.33333333333331</ele><time>2026-04-30T16:14:14.606Z</time></trkpt><trkpt lat="45.5320527" lon="9.2719986"><ele>137.0</ele><time>2026-04-30T16:14:15.605Z</time></trkpt><trkpt lat="45.5319347" lon="9.2717495"><ele>136.33333333333331</ele><time>2026-04-30T16:14:16.605Z</time></trkpt><trkpt lat="45.5318142" lon="9.2714934"><ele>135.66666666666666</ele><time>2026-04-30T16:14:17.606Z</time></trkpt><trkpt lat="45.5316941" lon="9.271232"><ele>135.0</ele><time>2026-04-30T16:14:18.606Z</time></trkpt><trkpt lat="45.5315728" lon="9.2709723"><ele>135.0</ele><time>2026-04-30T16:14:19.606Z</time></trkpt><trkpt lat="45.5314542" lon="9.2707172"><ele>135.0</ele><time>2026-04-30T16:14:20.606Z</time></trkpt><trkpt lat="45.531336" lon="9.2704709"><ele>135.0</ele><time>2026-04-30T16:14:21.606Z</time></trkpt><trkpt lat="45.5312192" lon="9.270226"><ele>135.33333333333334</ele><time>2026-04-30T16:14:22.607Z</time></trkpt><trkpt lat="45.5311129" lon="9.2699798"><ele>135.66666666666669</ele><time>2026-04-30T16:14:23.606Z</time></trkpt><trkpt lat="45.5310228" lon="9.269726"><ele>136.0</ele><time>2026-04-30T16:14:24.607Z</time></trkpt><trkpt lat="45.5309498" lon="9.2694688"><ele>136.33333333333334</ele><time>2026-04-30T16:14:25.605Z</time></trkpt><trkpt lat="45.5308766" lon="9.2692243"><ele>136.66666666666666</ele><time>2026-04-30T16:14:26.606Z</time></trkpt><trkpt lat="45.5307975" lon="9.2689932"><ele>137.0</ele><time>2026-04-30T16:14:27.607Z</time></trkpt><trkpt lat="45.5307068" lon="9.2687822"><ele>136.0</ele><time>2026-04-30T16:14:28.607Z</time></trkpt><trkpt lat="45.5306115" lon="9.268593"><ele>135.0</ele><time>2026-04-30T16:14:29.606Z</time></trkpt><trkpt lat="45.5305157" lon="9.2684229"><ele>134.0</ele><time>2026-04-30T16:14:30.606Z</time></trkpt><trkpt lat="45.5304264" lon="9.2682585"><ele>134.0</ele><time>2026-04-30T16:14:31.605Z</time></trkpt><trkpt lat="45.5303301" lon="9.2681097"><ele>134.0</ele><time>2026-04-30T16:14:32.606Z</time></trkpt><trkpt lat="45.5302452" lon="9.2679675"><ele>134.0</ele><time>2026-04-30T16:14:33.606Z</time></trkpt><trkpt lat="45.5301595" lon="9.2678246"><ele>134.0</ele><time>2026-04-30T16:14:34.606Z</time></trkpt><trkpt lat="45.5300736" lon="9.2676802"><ele>134.0</ele><time>2026-04-30T16:14:35.607Z</time></trkpt><trkpt lat="45.5299872" lon="9.2675367"><ele>134.0</ele><time>2026-04-30T16:14:36.605Z</time></trkpt><trkpt lat="45.5299005" lon="9.2673996"><ele>134.0</ele><time>2026-04-30T16:14:37.607Z</time></trkpt><trkpt lat="45.5298168" lon="9.2672768"><ele>134.0</ele><time>2026-04-30T16:14:38.606Z</time></trkpt><trkpt lat="45.5297305" lon="9.267161"><ele>134.0</ele><time>2026-04-30T16:14:39.606Z</time></trkpt><trkpt lat="45.5296467" lon="9.2670537"><ele>134.0</ele><time>2026-04-30T16:14:40.605Z</time></trkpt><trkpt lat="45.5295621" lon="9.2669623"><ele>134.0</ele><time>2026-04-30T16:14:41.607Z</time></trkpt><trkpt lat="45.5294858" lon="9.2668793"><ele>134.0</ele><time>2026-04-30T16:14:42.605Z</time></trkpt><trkpt lat="45.5294206" lon="9.2668053"><ele>134.0</ele><time>2026-04-30T16:14:43.606Z</time></trkpt><trkpt lat="45.5293519" lon="9.2667357"><ele>134.0</ele><time>2026-04-30T16:14:45.606Z</time></trkpt><trkpt lat="45.5292909" lon="9.2666739"><ele>134.0</ele><time>2026-04-30T16:14:49.606Z</time></trkpt><trkpt lat="45.5292304" lon="9.2666228"><ele>134.0</ele><time>2026-04-30T16:14:53.606Z</time></trkpt><trkpt lat="45.5291583" lon="9.2665646"><ele>134.0</ele><time>2026-04-30T16:14:56.606Z</time></trkpt><trkpt lat="45.5290828" lon="9.2664951"><ele>134.0</ele><time>2026-04-30T16:14:59.605Z</time></trkpt><trkpt lat="45.5290062" lon="9.2664232"><ele>134.0</ele><time>2026-04-30T16:15:02.605Z</time></trkpt><trkpt lat="45.5289428" lon="9.2663693"><ele>134.14285714285714</ele><time>2026-04-30T16:15:05.605Z</time></trkpt><trkpt lat="45.528876" lon="9.2663231"><ele>134.28571428571428</ele><time>2026-04-30T16:15:15.606Z</time></trkpt><trkpt lat="45.5288212" lon="9.2662765"><ele>134.42857142857142</ele><time>2026-04-30T16:15:21.606Z</time></trkpt><trkpt lat="45.5287627" lon="9.2662279"><ele>134.57142857142856</ele><time>2026-04-30T16:15:30.605Z</time></trkpt><trkpt lat="45.5287063" lon="9.2661825"><ele>134.7142857142857</ele><time>2026-04-30T16:15:50.606Z</time></trkpt><trkpt lat="45.5286454" lon="9.2661304"><ele>134.85714285714286</ele><time>2026-04-30T16:15:54.606Z</time></trkpt><trkpt lat="45.5285813" lon="9.2660761"><ele>135.0</ele><time>2026-04-30T16:15:58.606Z</time></trkpt><trkpt lat="45.5285193" lon="9.2660246"><ele>134.85714285714286</ele><time>2026-04-30T16:16:08.607Z</time></trkpt><trkpt lat="45.5284649" lon="9.2659792"><ele>134.7142857142857</ele><time>2026-04-30T16:16:12.606Z</time></trkpt><trkpt lat="45.528408" lon="9.2659193"><ele>134.57142857142856</ele><time>2026-04-30T16:16:26.606Z</time></trkpt><trkpt lat="45.528354" lon="9.2658533"><ele>134.42857142857142</ele><time>2026-04-30T16:16:30.607Z</time></trkpt><trkpt lat="45.5283018" lon="9.2657928"><ele>134.28571428571428</ele><time>2026-04-30T16:16:35.606Z</time></trkpt><trkpt lat="45.5282474" lon="9.2657219"><ele>134.14285714285714</ele><time>2026-04-30T16:16:38.607Z</time></trkpt><trkpt lat="45.5281688" lon="9.2656292"><ele>134.0</ele><time>2026-04-30T16:16:41.605Z</time></trkpt><trkpt lat="45.5280806" lon="9.2655387"><ele>134.0</ele><time>2026-04-30T16:16:43.605Z</time></trkpt><trkpt lat="45.5279952" lon="9.2654335"><ele>134.0</ele><time>2026-04-30T16:16:45.607Z</time></trkpt><trkpt lat="45.5279301" lon="9.2653423"><ele>134.0</ele><time>2026-04-30T16:16:47.607Z</time></trkpt><trkpt lat="45.5278876" lon="9.2652579"><ele>134.0</ele><time>2026-04-30T16:16:51.592Z</time></trkpt><trkpt lat="45.5278573" lon="9.2651769"><ele>134.0</ele><time>2026-04-30T16:16:56.604Z</time></trkpt><trkpt lat="45.5278271" lon="9.2650634"><ele>134.0</ele><time>2026-04-30T16:17:00.604Z</time></trkpt><trkpt lat="45.5278055" lon="9.2649229"><ele>133.83333333333331</ele><time>2026-04-30T16:17:03.604Z</time></trkpt><trkpt lat="45.5277902" lon="9.2647821"><ele>133.66666666666666</ele><time>2026-04-30T16:17:05.604Z</time></trkpt><trkpt lat="45.527776" lon="9.264654"><ele>133.5</ele><time>2026-04-30T16:17:07.604Z</time></trkpt><trkpt lat="45.5277623" lon="9.2645333"><ele>133.33333333333334</ele><time>2026-04-30T16:17:09.604Z</time></trkpt><trkpt lat="45.5277496" lon="9.2644209"><ele>133.16666666666669</ele><time>2026-04-30T16:17:11.605Z</time></trkpt><trkpt lat="45.5277346" lon="9.2643002"><ele>133.0</ele><time>2026-04-30T16:17:13.605Z</time></trkpt><trkpt lat="45.5277172" lon="9.264159"><ele>133.0</ele><time>2026-04-30T16:17:15.605Z</time></trkpt><trkpt lat="45.5276971" lon="9.2639988"><ele>133.0</ele><time>2026-04-30T16:17:17.604Z</time></trkpt><trkpt lat="45.5276857" lon="9.2639053"><ele>133.0</ele><time>2026-04-30T16:17:18.604Z</time></trkpt><trkpt lat="45.5276733" lon="9.2638024"><ele>133.0</ele><time>2026-04-30T16:17:19.605Z</time></trkpt><trkpt lat="45.5276615" lon="9.2636951"><ele>133.0</ele><time>2026-04-30T16:17:20.605Z</time></trkpt><trkpt lat="45.5276495" lon="9.2635898"><ele>133.0</ele><time>2026-04-30T16:17:21.604Z</time></trkpt><trkpt lat="45.5276367" lon="9.2634822"><ele>133.0</ele><time>2026-04-30T16:17:22.604Z</time></trkpt><trkpt lat="45.5276219" lon="9.2633587"><ele>133.0</ele><time>2026-04-30T16:17:23.604Z</time></trkpt><trkpt lat="45.5276074" lon="9.2632382"><ele>133.0</ele><time>2026-04-30T16:17:24.604Z</time></trkpt><trkpt lat="45.5275933" lon="9.2631215"><ele>133.0</ele><time>2026-04-30T16:17:25.605Z</time></trkpt><trkpt lat="45.5275786" lon="9.2630051"><ele>133.0</ele><time>2026-04-30T16:17:26.604Z</time></trkpt><trkpt lat="45.5275644" lon="9.2628888"><ele>133.0</ele><time>2026-04-30T16:17:27.605Z</time></trkpt><trkpt lat="45.5275495" lon="9.2627667"><ele>133.0</ele><time>2026-04-30T16:17:28.605Z</time></trkpt><trkpt lat="45.5275342" lon="9.2626427"><ele>133.0</ele><time>2026-04-30T16:17:29.605Z</time></trkpt><trkpt lat="45.5275186" lon="9.2625094"><ele>133.0</ele><time>2026-04-30T16:17:30.604Z</time></trkpt><trkpt lat="45.5275026" lon="9.2623674"><ele>133.0</ele><time>2026-04-30T16:17:31.604Z</time></trkpt><trkpt lat="45.5274868" lon="9.2622291"><ele>133.0</ele><time>2026-04-30T16:17:32.605Z</time></trkpt><trkpt lat="45.5274708" lon="9.2620931"><ele>132.8</ele><time>2026-04-30T16:17:33.605Z</time></trkpt><trkpt lat="45.5274553" lon="9.2619609"><ele>132.60000000000002</ele><time>2026-04-30T16:17:34.604Z</time></trkpt><trkpt lat="45.5274391" lon="9.261823"><ele>132.39999999999998</ele><time>2026-04-30T16:17:35.604Z</time></trkpt><trkpt lat="45.5274225" lon="9.2616782"><ele>132.2</ele><time>2026-04-30T16:17:36.604Z</time></trkpt><trkpt lat="45.5274063" lon="9.2615402"><ele>132.0</ele><time>2026-04-30T16:17:37.605Z</time></trkpt><trkpt lat="45.5273907" lon="9.261409"><ele>132.0</ele><time>2026-04-30T16:17:38.605Z</time></trkpt><trkpt lat="45.5273743" lon="9.2612692"><ele>132.0</ele><time>2026-04-30T16:17:39.604Z</time></trkpt><trkpt lat="45.5273578" lon="9.261137"><ele>132.0</ele><time>2026-04-30T16:17:40.605Z</time></trkpt><trkpt lat="45.5273422" lon="9.2610074"><ele>132.0</ele><time>2026-04-30T16:17:41.604Z</time></trkpt><trkpt lat="45.5273272" lon="9.2608874"><ele>132.0</ele><time>2026-04-30T16:17:42.605Z</time></trkpt><trkpt lat="45.5273111" lon="9.2607608"><ele>132.0</ele><time>2026-04-30T16:17:43.604Z</time></trkpt><trkpt lat="45.5272942" lon="9.2606218"><ele>132.0</ele><time>2026-04-30T16:17:44.604Z</time></trkpt><trkpt lat="45.5272766" lon="9.2604736"><ele>132.0</ele><time>2026-04-30T16:17:45.604Z</time></trkpt><trkpt lat="45.5272589" lon="9.260326"><ele>132.0</ele><time>2026-04-30T16:17:46.604Z</time></trkpt><trkpt lat="45.5272386" lon="9.2601717"><ele>132.0</ele><time>2026-04-30T16:17:47.605Z</time></trkpt><trkpt lat="45.5272191" lon="9.2600344"><ele>132.4</ele><time>2026-04-30T16:17:48.605Z</time></trkpt><trkpt lat="45.5272008" lon="9.259911"><ele>132.79999999999998</ele><time>2026-04-30T16:17:49.604Z</time></trkpt><trkpt lat="45.527186" lon="9.2598091"><ele>133.2</ele><time>2026-04-30T16:17:50.604Z</time></trkpt><trkpt lat="45.5271668" lon="9.2596799"><ele>133.6</ele><time>2026-04-30T16:17:52.604Z</time></trkpt><trkpt lat="45.5271438" lon="9.2595455"><ele>134.0</ele><time>2026-04-30T16:18:17.607Z</time></trkpt><trkpt lat="45.5271172" lon="9.2594043"><ele>133.83333333333331</ele><time>2026-04-30T16:18:19.606Z</time></trkpt><trkpt lat="45.527102" lon="9.2593077"><ele>133.66666666666666</ele><time>2026-04-30T16:18:20.606Z</time></trkpt><trkpt lat="45.5270873" lon="9.2592075"><ele>133.5</ele><time>2026-04-30T16:18:21.607Z</time></trkpt><trkpt lat="45.5270687" lon="9.2591071"><ele>133.33333333333334</ele><time>2026-04-30T16:18:22.606Z</time></trkpt><trkpt lat="45.5270349" lon="9.2590077"><ele>133.16666666666669</ele><time>2026-04-30T16:18:23.607Z</time></trkpt><trkpt lat="45.5270273" lon="9.2588694"><ele>133.0</ele><time>2026-04-30T16:18:24.606Z</time></trkpt><trkpt lat="45.527019" lon="9.258742"><ele>133.0</ele><time>2026-04-30T16:18:25.607Z</time></trkpt><trkpt lat="45.5270097" lon="9.2586226"><ele>133.0</ele><time>2026-04-30T16:18:26.605Z</time></trkpt><trkpt lat="45.5270011" lon="9.2585149"><ele>133.0</ele><time>2026-04-30T16:18:27.607Z</time></trkpt><trkpt lat="45.5269872" lon="9.2584036"><ele>133.0</ele><time>2026-04-30T16:18:28.606Z</time></trkpt><trkpt lat="45.5269754" lon="9.2583094"><ele>133.0</ele><time>2026-04-30T16:18:29.607Z</time></trkpt><trkpt lat="45.5269668" lon="9.2582184"><ele>133.0</ele><time>2026-04-30T16:18:30.606Z</time></trkpt><trkpt lat="45.5269485" lon="9.2580518"><ele>133.5</ele><time>2026-04-30T16:18:32.607Z</time></trkpt><trkpt lat="45.5269277" lon="9.2578725"><ele>134.0</ele><time>2026-04-30T16:18:34.606Z</time></trkpt><trkpt lat="45.5269151" lon="9.2577701"><ele>134.5</ele><time>2026-04-30T16:18:35.606Z</time></trkpt><trkpt lat="45.5269018" lon="9.2576672"><ele>135.0</ele><time>2026-04-30T16:18:36.606Z</time></trkpt><trkpt lat="45.5268865" lon="9.2575522"><ele>135.5</ele><time>2026-04-30T16:18:37.607Z</time></trkpt><trkpt lat="45.5268714" lon="9.2574327"><ele>136.0</ele><time>2026-04-30T16:18:38.606Z</time></trkpt><trkpt lat="45.5268528" lon="9.2573146"><ele>135.6</ele><time>2026-04-30T16:18:39.605Z</time></trkpt><trkpt lat="45.5268379" lon="9.2571886"><ele>135.2</ele><time>2026-04-30T16:18:40.605Z</time></trkpt><trkpt lat="45.5268248" lon="9.2570618"><ele>134.8</ele><time>2026-04-30T16:18:41.607Z</time></trkpt><trkpt lat="45.5268086" lon="9.2569275"><ele>134.4</ele><time>2026-04-30T16:18:42.606Z</time></trkpt><trkpt lat="45.5267893" lon="9.2567935"><ele>134.0</ele><time>2026-04-30T16:18:43.606Z</time></trkpt><trkpt lat="45.5267705" lon="9.2566526"><ele>134.0</ele><time>2026-04-30T16:18:44.607Z</time></trkpt><trkpt lat="45.5267528" lon="9.2565054"><ele>134.0</ele><time>2026-04-30T16:18:45.607Z</time></trkpt><trkpt lat="45.5267353" lon="9.2563586"><ele>134.0</ele><time>2026-04-30T16:18:46.606Z</time></trkpt><trkpt lat="45.5267197" lon="9.2562109"><ele>134.0</ele><time>2026-04-30T16:18:47.606Z</time></trkpt><trkpt lat="45.5267038" lon="9.2560704"><ele>134.0</ele><time>2026-04-30T16:18:48.607Z</time></trkpt><trkpt lat="45.5266889" lon="9.2559332"><ele>133.83333333333331</ele><time>2026-04-30T16:18:49.607Z</time></trkpt><trkpt lat="45.5266736" lon="9.2557888"><ele>133.66666666666666</ele><time>2026-04-30T16:18:50.606Z</time></trkpt><trkpt lat="45.5266604" lon="9.2556561"><ele>133.5</ele><time>2026-04-30T16:18:51.605Z</time></trkpt><trkpt lat="45.5266437" lon="9.2555318"><ele>133.33333333333334</ele><time>2026-04-30T16:18:52.607Z</time></trkpt><trkpt lat="45.5266437" lon="9.2554197"><ele>133.16666666666669</ele><time>2026-04-30T16:18:53.606Z</time></trkpt><trkpt lat="45.5266545" lon="9.2553211"><ele>133.0</ele><time>2026-04-30T16:18:54.606Z</time></trkpt><trkpt lat="45.5266791" lon="9.2551783"><ele>133.0</ele><time>2026-04-30T16:18:56.605Z</time></trkpt><trkpt lat="45.5267264" lon="9.255054"><ele>133.0</ele><time>2026-04-30T16:18:58.607Z</time></trkpt><trkpt lat="45.5268176" lon="9.2549289"><ele>133.0</ele><time>2026-04-30T16:19:00.606Z</time></trkpt><trkpt lat="45.5268858" lon="9.254897"><ele>133.0</ele><time>2026-04-30T16:19:01.607Z</time></trkpt><trkpt lat="45.526978" lon="9.2548771"><ele>133.0</ele><time>2026-04-30T16:19:02.606Z</time></trkpt><trkpt lat="45.5270894" lon="9.2548626"><ele>133.25</ele><time>2026-04-30T16:19:03.606Z</time></trkpt><trkpt lat="45.527211" lon="9.2548485"><ele>133.5</ele><time>2026-04-30T16:19:04.606Z</time></trkpt><trkpt lat="45.5273311" lon="9.2548258"><ele>133.75</ele><time>2026-04-30T16:19:05.606Z</time></trkpt><trkpt lat="45.5274579" lon="9.2547969"><ele>134.0</ele><time>2026-04-30T16:19:06.607Z</time></trkpt><trkpt lat="45.5275947" lon="9.2547663"><ele>135.0</ele><time>2026-04-30T16:19:07.606Z</time></trkpt><trkpt lat="45.5277363" lon="9.2547336"><ele>136.0</ele><time>2026-04-30T16:19:08.607Z</time></trkpt><trkpt lat="45.5278831" lon="9.2547004"><ele>137.0</ele><time>2026-04-30T16:19:09.605Z</time></trkpt><trkpt lat="45.528042" lon="9.2546625"><ele>137.33333333333331</ele><time>2026-04-30T16:19:10.607Z</time></trkpt><trkpt lat="45.5282048" lon="9.2546219"><ele>137.66666666666666</ele><time>2026-04-30T16:19:11.605Z</time></trkpt><trkpt lat="45.5283652" lon="9.2545777"><ele>138.0</ele><time>2026-04-30T16:19:12.607Z</time></trkpt><trkpt lat="45.5285201" lon="9.2545342"><ele>138.0</ele><time>2026-04-30T16:19:13.605Z</time></trkpt><trkpt lat="45.5286668" lon="9.2544867"><ele>138.0</ele><time>2026-04-30T16:19:14.607Z</time></trkpt><trkpt lat="45.5288031" lon="9.2544436"><ele>138.0</ele><time>2026-04-30T16:19:15.605Z</time></trkpt><trkpt lat="45.5289215" lon="9.2544064"><ele>138.0</ele><time>2026-04-30T16:19:16.607Z</time></trkpt><trkpt lat="45.5290189" lon="9.2543756"><ele>138.14285714285714</ele><time>2026-04-30T16:19:17.606Z</time></trkpt><trkpt lat="45.5291043" lon="9.2543539"><ele>138.2857142857143</ele><time>2026-04-30T16:19:18.605Z</time></trkpt><trkpt lat="45.5291663" lon="9.2543339"><ele>138.42857142857144</ele><time>2026-04-30T16:19:19.607Z</time></trkpt><trkpt lat="45.5292552" lon="9.2543064"><ele>138.57142857142858</ele><time>2026-04-30T16:19:21.606Z</time></trkpt><trkpt lat="45.5293213" lon="9.2542888"><ele>138.71428571428572</ele><time>2026-04-30T16:19:23.606Z</time></trkpt><trkpt lat="45.5293848" lon="9.2542759"><ele>138.85714285714286</ele><time>2026-04-30T16:19:26.606Z</time></trkpt><trkpt lat="45.5294547" lon="9.2542616"><ele>139.0</ele><time>2026-04-30T16:20:09.606Z</time></trkpt><trkpt lat="45.5295175" lon="9.2542503"><ele>139.5</ele><time>2026-04-30T16:20:11.606Z</time></trkpt><trkpt lat="45.5295921" lon="9.2542345"><ele>140.0</ele><time>2026-04-30T16:20:13.606Z</time></trkpt><trkpt lat="45.5296663" lon="9.2542142"><ele>140.5</ele><time>2026-04-30T16:20:15.605Z</time></trkpt><trkpt lat="45.529731" lon="9.2541915"><ele>141.0</ele><time>2026-04-30T16:20:17.606Z</time></trkpt><trkpt lat="45.5298118" lon="9.2541616"><ele>141.5</ele><time>2026-04-30T16:20:20.605Z</time></trkpt><trkpt lat="45.5299098" lon="9.2541117"><ele>142.0</ele><time>2026-04-30T16:21:35.607Z</time></trkpt><trkpt lat="45.5299729" lon="9.2540626"><ele>142.0</ele><time>2026-04-30T16:21:38.606Z</time></trkpt><trkpt lat="45.530033" lon="9.2539993"><ele>142.0</ele><time>2026-04-30T16:21:40.606Z</time></trkpt><trkpt lat="45.5300961" lon="9.2538847"><ele>142.0</ele><time>2026-04-30T16:21:42.606Z</time></trkpt><trkpt lat="45.5301561" lon="9.2537708"><ele>142.0</ele><time>2026-04-30T16:21:44.606Z</time></trkpt><trkpt lat="45.5302142" lon="9.253672"><ele>142.0</ele><time>2026-04-30T16:21:46.607Z</time></trkpt><trkpt lat="45.5302638" lon="9.2535787"><ele>142.0</ele><time>2026-04-30T16:21:48.607Z</time></trkpt><trkpt lat="45.5303041" lon="9.253506"><ele>142.0</ele><time>2026-04-30T16:21:52.594Z</time></trkpt><trkpt lat="45.5303397" lon="9.2534164"><ele>142.0</ele><time>2026-04-30T16:23:20.617Z</time></trkpt><trkpt lat="45.5303664" lon="9.2533046"><ele>142.0</ele><time>2026-04-30T16:23:22.616Z</time></trkpt><trkpt lat="45.5303165" lon="9.253157"><ele>142.0</ele><time>2026-04-30T16:23:24.617Z</time></trkpt><trkpt lat="45.5302686" lon="9.2530865"><ele>142.0</ele><time>2026-04-30T16:23:25.616Z</time></trkpt><trkpt lat="45.5302113" lon="9.253015"><ele>142.0</ele><time>2026-04-30T16:23:26.616Z</time></trkpt><trkpt lat="45.5301508" lon="9.252946"><ele>141.66666666666669</ele><time>2026-04-30T16:23:27.617Z</time></trkpt><trkpt lat="45.5300812" lon="9.2528721"><ele>141.33333333333334</ele><time>2026-04-30T16:23:28.617Z</time></trkpt><trkpt lat="45.5300131" lon="9.2527991"><ele>141.0</ele><time>2026-04-30T16:23:29.617Z</time></trkpt><trkpt lat="45.529948" lon="9.2527258"><ele>140.66666666666666</ele><time>2026-04-30T16:23:30.617Z</time></trkpt><trkpt lat="45.5298836" lon="9.2526516"><ele>140.33333333333331</ele><time>2026-04-30T16:23:31.616Z</time></trkpt><trkpt lat="45.5298236" lon="9.2525832"><ele>140.0</ele><time>2026-04-30T16:23:32.617Z</time></trkpt><trkpt lat="45.5297622" lon="9.252517"><ele>140.0</ele><time>2026-04-30T16:23:33.617Z</time></trkpt><trkpt lat="45.5297004" lon="9.2524515"><ele>140.0</ele><time>2026-04-30T16:23:34.617Z</time></trkpt><trkpt lat="45.5296363" lon="9.2523819"><ele>140.0</ele><time>2026-04-30T16:23:35.617Z</time></trkpt><trkpt lat="45.5295673" lon="9.2523074"><ele>140.0</ele><time>2026-04-30T16:23:36.617Z</time></trkpt><trkpt lat="45.5294982" lon="9.2522336"><ele>140.0</ele><time>2026-04-30T16:23:37.616Z</time></trkpt><trkpt lat="45.5294285" lon="9.2521583"><ele>140.0</ele><time>2026-04-30T16:23:38.617Z</time></trkpt><trkpt lat="45.529354" lon="9.2520778"><ele>140.6</ele><time>2026-04-30T16:23:39.617Z</time></trkpt><trkpt lat="45.5292804" lon="9.2519993"><ele>141.2</ele><time>2026-04-30T16:23:40.617Z</time></trkpt><trkpt lat="45.5292048" lon="9.2519186"><ele>141.8</ele><time>2026-04-30T16:23:41.616Z</time></trkpt><trkpt lat="45.5291303" lon="9.2518381"><ele>142.4</ele><time>2026-04-30T16:23:42.616Z</time></trkpt><trkpt lat="45.5290522" lon="9.2517534"><ele>143.0</ele><time>2026-04-30T16:23:43.616Z</time></trkpt><trkpt lat="45.5289685" lon="9.2516612"><ele>143.0</ele><time>2026-04-30T16:23:44.617Z</time></trkpt><trkpt lat="45.528882" lon="9.251568"><ele>143.0</ele><time>2026-04-30T16:23:45.617Z</time></trkpt><trkpt lat="45.5287976" lon="9.2514733"><ele>143.0</ele><time>2026-04-30T16:23:46.616Z</time></trkpt><trkpt lat="45.5287102" lon="9.2513661"><ele>143.0</ele><time>2026-04-30T16:23:47.617Z</time></trkpt><trkpt lat="45.5286279" lon="9.251244"><ele>141.75</ele><time>2026-04-30T16:23:48.617Z</time></trkpt><trkpt lat="45.5285558" lon="9.2511044"><ele>140.5</ele><time>2026-04-30T16:23:49.616Z</time></trkpt><trkpt lat="45.5285006" lon="9.2509453"><ele>139.25</ele><time>2026-04-30T16:23:50.616Z</time></trkpt><trkpt lat="45.5284636" lon="9.2507747"><ele>138.0</ele><time>2026-04-30T16:23:51.616Z</time></trkpt><trkpt lat="45.5284328" lon="9.2505928"><ele>138.0</ele><time>2026-04-30T16:23:52.616Z</time></trkpt><trkpt lat="45.5284058" lon="9.2504193"><ele>138.0</ele><time>2026-04-30T16:23:53.616Z</time></trkpt><trkpt lat="45.5283791" lon="9.2502459"><ele>138.0</ele><time>2026-04-30T16:23:54.616Z</time></trkpt><trkpt lat="45.5283524" lon="9.2500788"><ele>138.0</ele><time>2026-04-30T16:23:55.617Z</time></trkpt><trkpt lat="45.5283268" lon="9.2499137"><ele>138.4</ele><time>2026-04-30T16:23:56.616Z</time></trkpt><trkpt lat="45.5283026" lon="9.2497534"><ele>138.8</ele><time>2026-04-30T16:23:57.616Z</time></trkpt><trkpt lat="45.528284" lon="9.2495939"><ele>139.2</ele><time>2026-04-30T16:23:58.616Z</time></trkpt><trkpt lat="45.5282767" lon="9.2494439"><ele>139.6</ele><time>2026-04-30T16:23:59.617Z</time></trkpt><trkpt lat="45.5282738" lon="9.2492891"><ele>140.0</ele><time>2026-04-30T16:24:00.617Z</time></trkpt><trkpt lat="45.5282728" lon="9.249145"><ele>140.0</ele><time>2026-04-30T16:24:01.616Z</time></trkpt><trkpt lat="45.5282748" lon="9.2490002"><ele>140.0</ele><time>2026-04-30T16:24:02.616Z</time></trkpt><trkpt lat="45.5282787" lon="9.248866"><ele>140.0</ele><time>2026-04-30T16:24:03.616Z</time></trkpt><trkpt lat="45.5282821" lon="9.2487422"><ele>140.0</ele><time>2026-04-30T16:24:04.617Z</time></trkpt><trkpt lat="45.5282843" lon="9.2486364"><ele>140.0</ele><time>2026-04-30T16:24:05.617Z</time></trkpt><trkpt lat="45.5282858" lon="9.248536"><ele>140.0</ele><time>2026-04-30T16:24:06.616Z</time></trkpt><trkpt lat="45.5282862" lon="9.2484437"><ele>140.33333333333331</ele><time>2026-04-30T16:24:07.617Z</time></trkpt><trkpt lat="45.5282858" lon="9.2483504"><ele>140.66666666666666</ele><time>2026-04-30T16:24:08.616Z</time></trkpt><trkpt lat="45.5282848" lon="9.2482162"><ele>141.0</ele><time>2026-04-30T16:24:10.616Z</time></trkpt><trkpt lat="45.5282811" lon="9.2481011"><ele>141.33333333333334</ele><time>2026-04-30T16:25:00.616Z</time></trkpt><trkpt lat="45.5282813" lon="9.2479881"><ele>141.66666666666669</ele><time>2026-04-30T16:25:02.617Z</time></trkpt><trkpt lat="45.5282807" lon="9.2478162"><ele>142.0</ele><time>2026-04-30T16:25:04.617Z</time></trkpt><trkpt lat="45.5282804" lon="9.2477123"><ele>142.0</ele><time>2026-04-30T16:25:05.617Z</time></trkpt><trkpt lat="45.5282795" lon="9.2476002"><ele>142.0</ele><time>2026-04-30T16:25:06.616Z</time></trkpt><trkpt lat="45.5282787" lon="9.2474759"><ele>142.0</ele><time>2026-04-30T16:25:07.616Z</time></trkpt><trkpt lat="45.5282773" lon="9.2473349"><ele>142.0</ele><time>2026-04-30T16:25:08.616Z</time></trkpt><trkpt lat="45.5282755" lon="9.2471875"><ele>142.0</ele><time>2026-04-30T16:25:09.616Z</time></trkpt><trkpt lat="45.5282723" lon="9.2470392"><ele>141.4</ele><time>2026-04-30T16:25:10.616Z</time></trkpt><trkpt lat="45.5282683" lon="9.2468853"><ele>140.79999999999998</ele><time>2026-04-30T16:25:11.616Z</time></trkpt><trkpt lat="45.5282632" lon="9.2467194"><ele>140.2</ele><time>2026-04-30T16:25:12.617Z</time></trkpt><trkpt lat="45.5282647" lon="9.2465633"><ele>139.6</ele><time>2026-04-30T16:25:13.617Z</time></trkpt><trkpt lat="45.5282675" lon="9.2464007"><ele>139.0</ele><time>2026-04-30T16:25:14.617Z</time></trkpt><trkpt lat="45.5282673" lon="9.246233"><ele>139.0</ele><time>2026-04-30T16:25:15.617Z</time></trkpt><trkpt lat="45.5282652" lon="9.2460681"><ele>139.0</ele><time>2026-04-30T16:25:16.617Z</time></trkpt><trkpt lat="45.5282641" lon="9.2459069"><ele>139.0</ele><time>2026-04-30T16:25:17.617Z</time></trkpt><trkpt lat="45.5282655" lon="9.2457461"><ele>139.0</ele><time>2026-04-30T16:25:18.616Z</time></trkpt><trkpt lat="45.5282673" lon="9.2455898"><ele>138.5</ele><time>2026-04-30T16:25:19.617Z</time></trkpt><trkpt lat="45.5282696" lon="9.2454277"><ele>138.0</ele><time>2026-04-30T16:25:20.616Z</time></trkpt><trkpt lat="45.5282692" lon="9.245268"><ele>137.5</ele><time>2026-04-30T16:25:21.616Z</time></trkpt><trkpt lat="45.5282668" lon="9.2451092"><ele>137.0</ele><time>2026-04-30T16:25:22.617Z</time></trkpt><trkpt lat="45.5282655" lon="9.2449393"><ele>137.5</ele><time>2026-04-30T16:25:23.617Z</time></trkpt><trkpt lat="45.5282642" lon="9.2447745"><ele>138.0</ele><time>2026-04-30T16:25:24.616Z</time></trkpt><trkpt lat="45.5282635" lon="9.244612"><ele>138.5</ele><time>2026-04-30T16:25:25.617Z</time></trkpt><trkpt lat="45.5282644" lon="9.2444525"><ele>139.0</ele><time>2026-04-30T16:25:26.616Z</time></trkpt><trkpt lat="45.5282661" lon="9.24429"><ele>139.0</ele><time>2026-04-30T16:25:27.617Z</time></trkpt><trkpt lat="45.528269" lon="9.2441219"><ele>139.0</ele><time>2026-04-30T16:25:28.617Z</time></trkpt><trkpt lat="45.5282731" lon="9.2439556"><ele>139.0</ele><time>2026-04-30T16:25:29.616Z</time></trkpt><trkpt lat="45.5282754" lon="9.2437826"><ele>139.0</ele><time>2026-04-30T16:25:30.617Z</time></trkpt><trkpt lat="45.5282762" lon="9.2435997"><ele>139.25</ele><time>2026-04-30T16:25:31.617Z</time></trkpt><trkpt lat="45.528275" lon="9.2434158"><ele>139.5</ele><time>2026-04-30T16:25:32.616Z</time></trkpt><trkpt lat="45.5282738" lon="9.2432238"><ele>139.75</ele><time>2026-04-30T16:25:33.616Z</time></trkpt><trkpt lat="45.5282736" lon="9.2430284"><ele>140.0</ele><time>2026-04-30T16:25:34.617Z</time></trkpt><trkpt lat="45.528274" lon="9.2428252"><ele>140.0</ele><time>2026-04-30T16:25:35.616Z</time></trkpt><trkpt lat="45.5282757" lon="9.2426145"><ele>140.0</ele><time>2026-04-30T16:25:36.617Z</time></trkpt><trkpt lat="45.5282774" lon="9.2424091"><ele>140.0</ele><time>2026-04-30T16:25:37.617Z</time></trkpt><trkpt lat="45.528279" lon="9.2422097"><ele>140.0</ele><time>2026-04-30T16:25:38.617Z</time></trkpt><trkpt lat="45.5282786" lon="9.2420063"><ele>139.5</ele><time>2026-04-30T16:25:39.617Z</time></trkpt><trkpt lat="45.5282777" lon="9.2418147"><ele>139.0</ele><time>2026-04-30T16:25:40.616Z</time></trkpt><trkpt lat="45.5282771" lon="9.2416323"><ele>138.5</ele><time>2026-04-30T16:25:41.617Z</time></trkpt><trkpt lat="45.528277" lon="9.241463"><ele>138.0</ele><time>2026-04-30T16:25:42.617Z</time></trkpt><trkpt lat="45.5282768" lon="9.2413269"><ele>138.0</ele><time>2026-04-30T16:25:43.617Z</time></trkpt><trkpt lat="45.528277" lon="9.2412213"><ele>138.0</ele><time>2026-04-30T16:25:44.616Z</time></trkpt><trkpt lat="45.528279" lon="9.2411046"><ele>138.0</ele><time>2026-04-30T16:25:46.616Z</time></trkpt><trkpt lat="45.5283028" lon="9.2409727"><ele>138.0</ele><time>2026-04-30T16:25:49.617Z</time></trkpt><trkpt lat="45.5283575" lon="9.2409005"><ele>138.0</ele><time>2026-04-30T16:25:51.616Z</time></trkpt><trkpt lat="45.5284695" lon="9.2408686"><ele>138.0</ele><time>2026-04-30T16:25:53.617Z</time></trkpt><trkpt lat="45.5285385" lon="9.2408611"><ele>138.0</ele><time>2026-04-30T16:25:54.616Z</time></trkpt><trkpt lat="45.5286124" lon="9.240855"><ele>138.0</ele><time>2026-04-30T16:25:55.617Z</time></trkpt><trkpt lat="45.5286899" lon="9.2408515"><ele>138.0</ele><time>2026-04-30T16:25:56.616Z</time></trkpt><trkpt lat="45.5287744" lon="9.2408607"><ele>138.0</ele><time>2026-04-30T16:25:57.616Z</time></trkpt><trkpt lat="45.5288609" lon="9.2408837"><ele>138.0</ele><time>2026-04-30T16:25:58.616Z</time></trkpt><trkpt lat="45.5289495" lon="9.2409078"><ele>138.0</ele><time>2026-04-30T16:25:59.616Z</time></trkpt><trkpt lat="45.5290354" lon="9.2409189"><ele>138.16666666666666</ele><time>2026-04-30T16:26:00.616Z</time></trkpt><trkpt lat="45.5291163" lon="9.2409083"><ele>138.33333333333334</ele><time>2026-04-30T16:26:01.617Z</time></trkpt><trkpt lat="45.5291859" lon="9.2408848"><ele>138.5</ele><time>2026-04-30T16:26:02.617Z</time></trkpt><trkpt lat="45.5292562" lon="9.2408593"><ele>138.66666666666669</ele><time>2026-04-30T16:26:04.617Z</time></trkpt><trkpt lat="45.5293293" lon="9.2408665"><ele>138.83333333333334</ele><time>2026-04-30T16:26:09.616Z</time></trkpt><trkpt lat="45.5294203" lon="9.2408702"><ele>139.0</ele><time>2026-04-30T16:26:11.616Z</time></trkpt><trkpt lat="45.5295053" lon="9.2407847"><ele>138.83333333333334</ele><time>2026-04-30T16:26:13.616Z</time></trkpt><trkpt lat="45.5295032" lon="9.2406154"><ele>138.66666666666669</ele><time>2026-04-30T16:26:15.616Z</time></trkpt><trkpt lat="45.5294656" lon="9.2405316"><ele>138.5</ele><time>2026-04-30T16:26:16.616Z</time></trkpt><trkpt lat="45.5294158" lon="9.2404411"><ele>138.33333333333334</ele><time>2026-04-30T16:26:17.616Z</time></trkpt><trkpt lat="45.5293633" lon="9.2403419"><ele>138.16666666666666</ele><time>2026-04-30T16:26:18.617Z</time></trkpt><trkpt lat="45.5293155" lon="9.2402331"><ele>138.0</ele><time>2026-04-30T16:26:19.617Z</time></trkpt><trkpt lat="45.529282" lon="9.2401385"><ele>138.0</ele><time>2026-04-30T16:26:20.617Z</time></trkpt><trkpt lat="45.5292559" lon="9.240053"><ele>138.0</ele><time>2026-04-30T16:26:21.616Z</time></trkpt><trkpt lat="45.5292207" lon="9.239913"><ele>138.0</ele><time>2026-04-30T16:26:23.616Z</time></trkpt><trkpt lat="45.5291863" lon="9.2398006"><ele>138.0</ele><time>2026-04-30T16:26:25.617Z</time></trkpt><trkpt lat="45.52911" lon="9.2397162"><ele>138.0</ele><time>2026-04-30T16:26:27.616Z</time></trkpt><trkpt lat="45.5290509" lon="9.239673"><ele>138.0</ele><time>2026-04-30T16:26:28.616Z</time></trkpt><trkpt lat="45.528992" lon="9.239618"><ele>138.20000000000002</ele><time>2026-04-30T16:26:29.617Z</time></trkpt><trkpt lat="45.5289335" lon="9.2395462"><ele>138.4</ele><time>2026-04-30T16:26:30.616Z</time></trkpt><trkpt lat="45.5288745" lon="9.239449"><ele>138.60000000000002</ele><time>2026-04-30T16:26:31.616Z</time></trkpt><trkpt lat="45.5288044" lon="9.2393261"><ele>138.8</ele><time>2026-04-30T16:26:32.616Z</time></trkpt><trkpt lat="45.5287331" lon="9.2391979"><ele>139.0</ele><time>2026-04-30T16:26:33.616Z</time></trkpt><trkpt lat="45.5286583" lon="9.2390639"><ele>138.75</ele><time>2026-04-30T16:26:34.616Z</time></trkpt><trkpt lat="45.5285745" lon="9.2389124"><ele>138.5</ele><time>2026-04-30T16:26:35.617Z</time></trkpt><trkpt lat="45.5284872" lon="9.2387612"><ele>138.25</ele><time>2026-04-30T16:26:36.617Z</time></trkpt><trkpt lat="45.5284015" lon="9.238616"><ele>138.0</ele><time>2026-04-30T16:26:37.617Z</time></trkpt><trkpt lat="45.5283132" lon="9.2384645"><ele>138.0</ele><time>2026-04-30T16:26:38.617Z</time></trkpt><trkpt lat="45.5282356" lon="9.2383284"><ele>138.0</ele><time>2026-04-30T16:26:39.617Z</time></trkpt><trkpt lat="45.5281606" lon="9.2381927"><ele>138.0</ele><time>2026-04-30T16:26:40.616Z</time></trkpt><trkpt lat="45.5280923" lon="9.2380667"><ele>138.0</ele><time>2026-04-30T16:26:41.617Z</time></trkpt><trkpt lat="45.5280248" lon="9.2379399"><ele>138.25</ele><time>2026-04-30T16:26:42.616Z</time></trkpt><trkpt lat="45.5279561" lon="9.2378116"><ele>138.5</ele><time>2026-04-30T16:26:43.616Z</time></trkpt><trkpt lat="45.5278879" lon="9.237685"><ele>138.75</ele><time>2026-04-30T16:26:44.616Z</time></trkpt><trkpt lat="45.5278184" lon="9.2375579"><ele>139.0</ele><time>2026-04-30T16:26:45.617Z</time></trkpt><trkpt lat="45.5277488" lon="9.2374304"><ele>138.6</ele><time>2026-04-30T16:26:46.616Z</time></trkpt><trkpt lat="45.5276807" lon="9.2373073"><ele>138.2</ele><time>2026-04-30T16:26:47.617Z</time></trkpt><trkpt lat="45.5276094" lon="9.2371777"><ele>137.79999999999998</ele><time>2026-04-30T16:26:48.616Z</time></trkpt><trkpt lat="45.5275413" lon="9.2370539"><ele>137.4</ele><time>2026-04-30T16:26:49.617Z</time></trkpt><trkpt lat="45.5274775" lon="9.2369397"><ele>137.0</ele><time>2026-04-30T16:26:50.616Z</time></trkpt><trkpt lat="45.5274191" lon="9.2368326"><ele>137.0</ele><time>2026-04-30T16:26:51.617Z</time></trkpt><trkpt lat="45.5273704" lon="9.2367422"><ele>137.0</ele><time>2026-04-30T16:26:52.616Z</time></trkpt><trkpt lat="45.5273281" lon="9.2366609"><ele>137.0</ele><time>2026-04-30T16:26:53.616Z</time></trkpt><trkpt lat="45.5272871" lon="9.2365724"><ele>137.0</ele><time>2026-04-30T16:26:54.616Z</time></trkpt><trkpt lat="45.5272414" lon="9.236468"><ele>137.0</ele><time>2026-04-30T16:26:55.617Z</time></trkpt><trkpt lat="45.5271768" lon="9.2363512"><ele>137.0</ele><time>2026-04-30T16:26:56.616Z</time></trkpt><trkpt lat="45.5271006" lon="9.236229"><ele>137.25</ele><time>2026-04-30T16:26:57.617Z</time></trkpt><trkpt lat="45.5270241" lon="9.2361033"><ele>137.5</ele><time>2026-04-30T16:26:58.616Z</time></trkpt><trkpt lat="45.526943" lon="9.2359611"><ele>137.75</ele><time>2026-04-30T16:26:59.616Z</time></trkpt><trkpt lat="45.5268563" lon="9.2358076"><ele>138.0</ele><time>2026-04-30T16:27:00.617Z</time></trkpt><trkpt lat="45.5267616" lon="9.2356388"><ele>138.0</ele><time>2026-04-30T16:27:01.617Z</time></trkpt><trkpt lat="45.5266618" lon="9.2354558"><ele>138.0</ele><time>2026-04-30T16:27:02.617Z</time></trkpt><trkpt lat="45.5265621" lon="9.2352738"><ele>138.0</ele><time>2026-04-30T16:27:03.617Z</time></trkpt><trkpt lat="45.5264561" lon="9.235082"><ele>138.0</ele><time>2026-04-30T16:27:04.616Z</time></trkpt><trkpt lat="45.5263547" lon="9.2348957"><ele>138.0</ele><time>2026-04-30T16:27:05.616Z</time></trkpt><trkpt lat="45.5262585" lon="9.2347198"><ele>138.0</ele><time>2026-04-30T16:27:06.616Z</time></trkpt><trkpt lat="45.5261594" lon="9.2345437"><ele>137.75</ele><time>2026-04-30T16:27:07.617Z</time></trkpt><trkpt lat="45.5260665" lon="9.234377"><ele>137.5</ele><time>2026-04-30T16:27:08.617Z</time></trkpt><trkpt lat="45.5259746" lon="9.2342136"><ele>137.25</ele><time>2026-04-30T16:27:09.616Z</time></trkpt><trkpt lat="45.5258853" lon="9.2340566"><ele>137.0</ele><time>2026-04-30T16:27:10.616Z</time></trkpt><trkpt lat="45.5257981" lon="9.2339016"><ele>137.5</ele><time>2026-04-30T16:27:11.617Z</time></trkpt><trkpt lat="45.5257104" lon="9.2337439"><ele>138.0</ele><time>2026-04-30T16:27:12.617Z</time></trkpt><trkpt lat="45.5256353" lon="9.2336063"><ele>138.5</ele><time>2026-04-30T16:27:13.616Z</time></trkpt><trkpt lat="45.5255677" lon="9.2334803"><ele>139.0</ele><time>2026-04-30T16:27:14.617Z</time></trkpt><trkpt lat="45.5255045" lon="9.2333667"><ele>139.0</ele><time>2026-04-30T16:27:15.617Z</time></trkpt><trkpt lat="45.5254519" lon="9.2332741"><ele>139.0</ele><time>2026-04-30T16:27:16.617Z</time></trkpt><trkpt lat="45.5254107" lon="9.2332006"><ele>139.0</ele><time>2026-04-30T16:27:17.616Z</time></trkpt><trkpt lat="45.5253637" lon="9.2331136"><ele>139.0</ele><time>2026-04-30T16:27:19.616Z</time></trkpt><trkpt lat="45.5253162" lon="9.2330264"><ele>139.0</ele><time>2026-04-30T16:27:31.617Z</time></trkpt><trkpt lat="45.52527" lon="9.2329415"><ele>139.0</ele><time>2026-04-30T16:27:33.617Z</time></trkpt><trkpt lat="45.5251957" lon="9.2328046"><ele>139.0</ele><time>2026-04-30T16:27:35.617Z</time></trkpt><trkpt lat="45.5251509" lon="9.2327222"><ele>139.0</ele><time>2026-04-30T16:27:36.617Z</time></trkpt><trkpt lat="45.5250976" lon="9.2326238"><ele>139.0</ele><time>2026-04-30T16:27:37.616Z</time></trkpt><trkpt lat="45.5250369" lon="9.2325132"><ele>139.0</ele><time>2026-04-30T16:27:38.617Z</time></trkpt><trkpt lat="45.5249675" lon="9.2323873"><ele>139.0</ele><time>2026-04-30T16:27:39.616Z</time></trkpt><trkpt lat="45.5248998" lon="9.2322641"><ele>139.25</ele><time>2026-04-30T16:27:40.617Z</time></trkpt><trkpt lat="45.5248232" lon="9.2321259"><ele>139.5</ele><time>2026-04-30T16:27:41.616Z</time></trkpt><trkpt lat="45.5247445" lon="9.2319829"><ele>139.75</ele><time>2026-04-30T16:27:42.617Z</time></trkpt><trkpt lat="45.524661" lon="9.2318223"><ele>140.0</ele><time>2026-04-30T16:27:43.617Z</time></trkpt><trkpt lat="45.5245815" lon="9.231665"><ele>140.75</ele><time>2026-04-30T16:27:44.617Z</time></trkpt><trkpt lat="45.5245076" lon="9.2315198"><ele>141.5</ele><time>2026-04-30T16:27:45.617Z</time></trkpt><trkpt lat="45.524439" lon="9.2313869"><ele>142.25</ele><time>2026-04-30T16:27:46.617Z</time></trkpt><trkpt lat="45.5243706" lon="9.2312562"><ele>143.0</ele><time>2026-04-30T16:27:47.617Z</time></trkpt><trkpt lat="45.5243058" lon="9.2311343"><ele>143.0</ele><time>2026-04-30T16:27:48.616Z</time></trkpt><trkpt lat="45.5242467" lon="9.2310213"><ele>143.0</ele><time>2026-04-30T16:27:49.616Z</time></trkpt><trkpt lat="45.524197" lon="9.2309155"><ele>143.0</ele><time>2026-04-30T16:27:50.616Z</time></trkpt><trkpt lat="45.5241553" lon="9.2308168"><ele>143.0</ele><time>2026-04-30T16:27:51.617Z</time></trkpt><trkpt lat="45.5241197" lon="9.2307241"><ele>143.0</ele><time>2026-04-30T16:27:52.617Z</time></trkpt><trkpt lat="45.5240746" lon="9.2305919"><ele>143.0</ele><time>2026-04-30T16:27:54.616Z</time></trkpt><trkpt lat="45.5240483" lon="9.2304939"><ele>142.42857142857142</ele><time>2026-04-30T16:28:14.616Z</time></trkpt><trkpt lat="45.5240176" lon="9.2303857"><ele>141.85714285714286</ele><time>2026-04-30T16:28:19.616Z</time></trkpt><trkpt lat="45.5239955" lon="9.2302945"><ele>141.28571428571428</ele><time>2026-04-30T16:28:22.616Z</time></trkpt><trkpt lat="45.5239717" lon="9.2301889"><ele>140.71428571428572</ele><time>2026-04-30T16:28:36.616Z</time></trkpt><trkpt lat="45.5239527" lon="9.2300921"><ele>140.14285714285714</ele><time>2026-04-30T16:28:40.616Z</time></trkpt><trkpt lat="45.5239362" lon="9.229996"><ele>139.57142857142856</ele><time>2026-04-30T16:28:44.617Z</time></trkpt><trkpt lat="45.5239215" lon="9.2299058"><ele>139.0</ele><time>2026-04-30T16:28:48.616Z</time></trkpt><trkpt lat="45.5239051" lon="9.2298046"><ele>138.4</ele><time>2026-04-30T16:29:26.616Z</time></trkpt><trkpt lat="45.5238823" lon="9.2296706"><ele>137.8</ele><time>2026-04-30T16:29:29.617Z</time></trkpt><trkpt lat="45.523861" lon="9.2295498"><ele>137.2</ele><time>2026-04-30T16:29:31.617Z</time></trkpt><trkpt lat="45.5238372" lon="9.2294139"><ele>136.6</ele><time>2026-04-30T16:29:33.617Z</time></trkpt><trkpt lat="45.5238151" lon="9.2292844"><ele>136.0</ele><time>2026-04-30T16:29:35.616Z</time></trkpt><trkpt lat="45.523796" lon="9.2291752"><ele>136.0</ele><time>2026-04-30T16:29:37.617Z</time></trkpt><trkpt lat="45.5237791" lon="9.2290799"><ele>136.0</ele><time>2026-04-30T16:29:40.617Z</time></trkpt><trkpt lat="45.5237603" lon="9.2289789"><ele>136.0</ele><time>2026-04-30T16:30:27.617Z</time></trkpt><trkpt lat="45.5237415" lon="9.2288697"><ele>136.0</ele><time>2026-04-30T16:30:30.616Z</time></trkpt><trkpt lat="45.5237219" lon="9.2287791"><ele>136.0</ele><time>2026-04-30T16:30:32.617Z</time></trkpt><trkpt lat="45.5236821" lon="9.2286197"><ele>136.0</ele><time>2026-04-30T16:30:34.616Z</time></trkpt><trkpt lat="45.5236617" lon="9.2285133"><ele>136.0</ele><time>2026-04-30T16:30:35.616Z</time></trkpt><trkpt lat="45.5236431" lon="9.2283957"><ele>136.0</ele><time>2026-04-30T16:30:36.617Z</time></trkpt><trkpt lat="45.5236276" lon="9.2282597"><ele>136.0</ele><time>2026-04-30T16:30:37.617Z</time></trkpt><trkpt lat="45.523616" lon="9.2281184"><ele>136.0</ele><time>2026-04-30T16:30:38.617Z</time></trkpt><trkpt lat="45.5236062" lon="9.2279795"><ele>136.0</ele><time>2026-04-30T16:30:39.616Z</time></trkpt><trkpt lat="45.5235962" lon="9.2278513"><ele>136.5</ele><time>2026-04-30T16:30:40.617Z</time></trkpt><trkpt lat="45.5235838" lon="9.2277428"><ele>137.0</ele><time>2026-04-30T16:30:41.616Z</time></trkpt><trkpt lat="45.5235699" lon="9.2276355"><ele>137.5</ele><time>2026-04-30T16:30:42.617Z</time></trkpt><trkpt lat="45.5235557" lon="9.2275228"><ele>138.0</ele><time>2026-04-30T16:30:43.616Z</time></trkpt><trkpt lat="45.5235414" lon="9.2274099"><ele>138.5</ele><time>2026-04-30T16:30:44.617Z</time></trkpt><trkpt lat="45.5235265" lon="9.227291"><ele>139.0</ele><time>2026-04-30T16:30:45.617Z</time></trkpt><trkpt lat="45.5235105" lon="9.2271707"><ele>139.0</ele><time>2026-04-30T16:30:46.616Z</time></trkpt><trkpt lat="45.5234954" lon="9.2270537"><ele>139.0</ele><time>2026-04-30T16:30:47.617Z</time></trkpt><trkpt lat="45.5234792" lon="9.2269333"><ele>139.0</ele><time>2026-04-30T16:30:48.617Z</time></trkpt><trkpt lat="45.5234636" lon="9.2268205"><ele>139.0</ele><time>2026-04-30T16:30:49.617Z</time></trkpt><trkpt lat="45.5234471" lon="9.2267055"><ele>139.0</ele><time>2026-04-30T16:30:50.616Z</time></trkpt><trkpt lat="45.5234327" lon="9.226593"><ele>139.0</ele><time>2026-04-30T16:30:51.616Z</time></trkpt><trkpt lat="45.5234178" lon="9.2264777"><ele>138.83333333333334</ele><time>2026-04-30T16:30:52.616Z</time></trkpt><trkpt lat="45.523404" lon="9.2263682"><ele>138.66666666666669</ele><time>2026-04-30T16:30:53.616Z</time></trkpt><trkpt lat="45.5233883" lon="9.2262525"><ele>138.5</ele><time>2026-04-30T16:30:54.617Z</time></trkpt><trkpt lat="45.523375" lon="9.2261413"><ele>138.33333333333334</ele><time>2026-04-30T16:30:55.617Z</time></trkpt><trkpt lat="45.5233597" lon="9.226019"><ele>138.16666666666666</ele><time>2026-04-30T16:30:56.616Z</time></trkpt><trkpt lat="45.5233456" lon="9.2259037"><ele>138.0</ele><time>2026-04-30T16:30:57.616Z</time></trkpt><trkpt lat="45.5233305" lon="9.2257834"><ele>138.0</ele><time>2026-04-30T16:30:58.616Z</time></trkpt><trkpt lat="45.5233142" lon="9.2256563"><ele>138.0</ele><time>2026-04-30T16:30:59.616Z</time></trkpt><trkpt lat="45.5232974" lon="9.2255263"><ele>138.0</ele><time>2026-04-30T16:31:00.617Z</time></trkpt><trkpt lat="45.5232787" lon="9.2253868"><ele>138.0</ele><time>2026-04-30T16:31:01.616Z</time></trkpt><trkpt lat="45.5232602" lon="9.2252468"><ele>138.0</ele><time>2026-04-30T16:31:02.617Z</time></trkpt><trkpt lat="45.523241" lon="9.2251047"><ele>138.0</ele><time>2026-04-30T16:31:03.617Z</time></trkpt><trkpt lat="45.52322" lon="9.2249539"><ele>138.0</ele><time>2026-04-30T16:31:04.617Z</time></trkpt><trkpt lat="45.5231956" lon="9.2248031"><ele>138.0</ele><time>2026-04-30T16:31:05.616Z</time></trkpt><trkpt lat="45.5231642" lon="9.2246444"><ele>138.0</ele><time>2026-04-30T16:31:06.616Z</time></trkpt><trkpt lat="45.5231268" lon="9.2244718"><ele>138.0</ele><time>2026-04-30T16:31:07.617Z</time></trkpt><trkpt lat="45.5230881" lon="9.2242965"><ele>138.0</ele><time>2026-04-30T16:31:08.616Z</time></trkpt><trkpt lat="45.5230536" lon="9.2241163"><ele>138.0</ele><time>2026-04-30T16:31:09.616Z</time></trkpt><trkpt lat="45.5230252" lon="9.2239378"><ele>138.0</ele><time>2026-04-30T16:31:10.616Z</time></trkpt><trkpt lat="45.523001" lon="9.2237633"><ele>138.20000000000002</ele><time>2026-04-30T16:31:11.617Z</time></trkpt><trkpt lat="45.522978" lon="9.2235899"><ele>138.4</ele><time>2026-04-30T16:31:12.617Z</time></trkpt><trkpt lat="45.5229568" lon="9.2234324"><ele>138.60000000000002</ele><time>2026-04-30T16:31:13.616Z</time></trkpt><trkpt lat="45.5229371" lon="9.2232843"><ele>138.8</ele><time>2026-04-30T16:31:14.617Z</time></trkpt><trkpt lat="45.5229234" lon="9.2231361"><ele>139.0</ele><time>2026-04-30T16:31:15.616Z</time></trkpt><trkpt lat="45.5229296" lon="9.2230004"><ele>139.0</ele><time>2026-04-30T16:31:16.616Z</time></trkpt><trkpt lat="45.5229568" lon="9.2228733"><ele>139.0</ele><time>2026-04-30T16:31:17.617Z</time></trkpt><trkpt lat="45.5229983" lon="9.2227544"><ele>139.0</ele><time>2026-04-30T16:31:18.617Z</time></trkpt><trkpt lat="45.5230473" lon="9.2226461"><ele>139.0</ele><time>2026-04-30T16:31:19.616Z</time></trkpt><trkpt lat="45.5230982" lon="9.2225384"><ele>139.0</ele><time>2026-04-30T16:31:20.617Z</time></trkpt><trkpt lat="45.5231429" lon="9.2224409"><ele>139.0</ele><time>2026-04-30T16:31:21.616Z</time></trkpt><trkpt lat="45.5231775" lon="9.2223467"><ele>139.33333333333334</ele><time>2026-04-30T16:31:22.617Z</time></trkpt><trkpt lat="45.5231964" lon="9.2222453"><ele>139.66666666666669</ele><time>2026-04-30T16:31:23.617Z</time></trkpt><trkpt lat="45.5231932" lon="9.2221469"><ele>140.0</ele><time>2026-04-30T16:31:24.616Z</time></trkpt><trkpt lat="45.5231638" lon="9.2220573"><ele>140.33333333333334</ele><time>2026-04-30T16:31:25.616Z</time></trkpt><trkpt lat="45.52311" lon="9.2219856"><ele>140.66666666666666</ele><time>2026-04-30T16:31:26.616Z</time></trkpt><trkpt lat="45.52304" lon="9.2219147"><ele>141.0</ele><time>2026-04-30T16:31:27.616Z</time></trkpt><trkpt lat="45.522956" lon="9.2218379"><ele>140.75</ele><time>2026-04-30T16:31:28.617Z</time></trkpt><trkpt lat="45.5228682" lon="9.2217538"><ele>140.5</ele><time>2026-04-30T16:31:29.617Z</time></trkpt><trkpt lat="45.522775" lon="9.2216615"><ele>140.25</ele><time>2026-04-30T16:31:30.616Z</time></trkpt><trkpt lat="45.5226779" lon="9.2215645"><ele>140.0</ele><time>2026-04-30T16:31:31.617Z</time></trkpt><trkpt lat="45.5225774" lon="9.2214656"><ele>140.0</ele><time>2026-04-30T16:31:32.617Z</time></trkpt><trkpt lat="45.5224736" lon="9.2213642"><ele>140.0</ele><time>2026-04-30T16:31:33.616Z</time></trkpt><trkpt lat="45.5223716" lon="9.2212664"><ele>140.0</ele><time>2026-04-30T16:31:34.617Z</time></trkpt><trkpt lat="45.5222654" lon="9.2211647"><ele>140.0</ele><time>2026-04-30T16:31:35.616Z</time></trkpt><trkpt lat="45.5221574" lon="9.2210606"><ele>140.25</ele><time>2026-04-30T16:31:36.617Z</time></trkpt><trkpt lat="45.5220554" lon="9.2209611"><ele>140.5</ele><time>2026-04-30T16:31:37.616Z</time></trkpt><trkpt lat="45.5219517" lon="9.2208576"><ele>140.75</ele><time>2026-04-30T16:31:38.617Z</time></trkpt><trkpt lat="45.5218454" lon="9.2207492"><ele>141.0</ele><time>2026-04-30T16:31:39.616Z</time></trkpt><trkpt lat="45.5217436" lon="9.2206437"><ele>141.0</ele><time>2026-04-30T16:31:40.617Z</time></trkpt><trkpt lat="45.5216445" lon="9.2205403"><ele>141.0</ele><time>2026-04-30T16:31:41.616Z</time></trkpt><trkpt lat="45.5215459" lon="9.2204372"><ele>141.0</ele><time>2026-04-30T16:31:42.617Z</time></trkpt><trkpt lat="45.52145" lon="9.2203372"><ele>141.0</ele><time>2026-04-30T16:31:43.617Z</time></trkpt><trkpt lat="45.5213536" lon="9.2202373"><ele>141.0</ele><time>2026-04-30T16:31:44.616Z</time></trkpt><trkpt lat="45.5212594" lon="9.2201403"><ele>141.0</ele><time>2026-04-30T16:31:45.616Z</time></trkpt><trkpt lat="45.5211683" lon="9.2200448"><ele>141.0</ele><time>2026-04-30T16:31:46.616Z</time></trkpt><trkpt lat="45.5210747" lon="9.2199487"><ele>141.0</ele><time>2026-04-30T16:31:47.616Z</time></trkpt><trkpt lat="45.5209855" lon="9.2198567"><ele>140.4</ele><time>2026-04-30T16:31:48.616Z</time></trkpt><trkpt lat="45.5208982" lon="9.2197663"><ele>139.8</ele><time>2026-04-30T16:31:49.617Z</time></trkpt><trkpt lat="45.5208153" lon="9.2196805"><ele>139.20000000000002</ele><time>2026-04-30T16:31:50.616Z</time></trkpt><trkpt lat="45.5207301" lon="9.2195934"><ele>138.6</ele><time>2026-04-30T16:31:51.616Z</time></trkpt><trkpt lat="45.5206434" lon="9.2195089"><ele>138.0</ele><time>2026-04-30T16:31:52.617Z</time></trkpt><trkpt lat="45.5205617" lon="9.2194368"><ele>138.0</ele><time>2026-04-30T16:31:53.616Z</time></trkpt><trkpt lat="45.5204808" lon="9.2193717"><ele>138.0</ele><time>2026-04-30T16:31:54.616Z</time></trkpt><trkpt lat="45.5204087" lon="9.2193177"><ele>138.0</ele><time>2026-04-30T16:31:55.616Z</time></trkpt><trkpt lat="45.5203468" lon="9.2192733"><ele>138.0</ele><time>2026-04-30T16:31:56.617Z</time></trkpt><trkpt lat="45.520241" lon="9.2191914"><ele>138.0</ele><time>2026-04-30T16:31:58.616Z</time></trkpt><trkpt lat="45.5201631" lon="9.2190703"><ele>138.0</ele><time>2026-04-30T16:32:00.617Z</time></trkpt><trkpt lat="45.520155" lon="9.2189132"><ele>138.0</ele><time>2026-04-30T16:32:02.616Z</time></trkpt><trkpt lat="45.5201133" lon="9.218782"><ele>138.0</ele><time>2026-04-30T16:32:04.616Z</time></trkpt><trkpt lat="45.5200181" lon="9.2187589"><ele>138.0</ele><time>2026-04-30T16:32:06.617Z</time></trkpt><trkpt lat="45.5199134" lon="9.2188422"><ele>138.0</ele><time>2026-04-30T16:32:08.617Z</time></trkpt><trkpt lat="45.5197868" lon="9.2188261"><ele>138.0</ele><time>2026-04-30T16:32:10.617Z</time></trkpt><trkpt lat="45.5197077" lon="9.2187697"><ele>138.0</ele><time>2026-04-30T16:32:11.617Z</time></trkpt><trkpt lat="45.5196194" lon="9.2187016"><ele>138.0</ele><time>2026-04-30T16:32:12.616Z</time></trkpt><trkpt lat="45.5195214" lon="9.2186258"><ele>138.0</ele><time>2026-04-30T16:32:13.616Z</time></trkpt><trkpt lat="45.5194214" lon="9.2185472"><ele>138.0</ele><time>2026-04-30T16:32:14.616Z</time></trkpt><trkpt lat="45.519313" lon="9.2184624"><ele>137.75</ele><time>2026-04-30T16:32:15.617Z</time></trkpt><trkpt lat="45.5191935" lon="9.218369"><ele>137.5</ele><time>2026-04-30T16:32:16.616Z</time></trkpt><trkpt lat="45.5190655" lon="9.2182675"><ele>137.25</ele><time>2026-04-30T16:32:17.617Z</time></trkpt><trkpt lat="45.5189279" lon="9.2181569"><ele>137.0</ele><time>2026-04-30T16:32:18.617Z</time></trkpt><trkpt lat="45.5187833" lon="9.2180388"><ele>136.66666666666666</ele><time>2026-04-30T16:32:19.617Z</time></trkpt><trkpt lat="45.5186376" lon="9.2179228"><ele>136.33333333333334</ele><time>2026-04-30T16:32:20.617Z</time></trkpt><trkpt lat="45.5184956" lon="9.2178103"><ele>136.0</ele><time>2026-04-30T16:32:21.616Z</time></trkpt><trkpt lat="45.5183474" lon="9.2176928"><ele>136.0</ele><time>2026-04-30T16:32:22.616Z</time></trkpt><trkpt lat="45.51819" lon="9.2175676"><ele>136.0</ele><time>2026-04-30T16:32:23.617Z</time></trkpt><trkpt lat="45.5180247" lon="9.2174373"><ele>136.0</ele><time>2026-04-30T16:32:24.617Z</time></trkpt><trkpt lat="45.5178502" lon="9.2172988"><ele>135.33333333333334</ele><time>2026-04-30T16:32:25.617Z</time></trkpt><trkpt lat="45.5176784" lon="9.2171627"><ele>134.66666666666666</ele><time>2026-04-30T16:32:26.617Z</time></trkpt><trkpt lat="45.5174825" lon="9.2170126"><ele>134.0</ele><time>2026-04-30T16:32:27.617Z</time></trkpt><trkpt lat="45.5172899" lon="9.2168692"><ele>134.0</ele><time>2026-04-30T16:32:28.617Z</time></trkpt><trkpt lat="45.5171011" lon="9.2167314"><ele>134.0</ele><time>2026-04-30T16:32:29.616Z</time></trkpt><trkpt lat="45.5169159" lon="9.2165912"><ele>134.0</ele><time>2026-04-30T16:32:30.616Z</time></trkpt><trkpt lat="45.516728" lon="9.2164582"><ele>135.66666666666666</ele><time>2026-04-30T16:32:31.616Z</time></trkpt><trkpt lat="45.516535" lon="9.2163388"><ele>137.33333333333334</ele><time>2026-04-30T16:32:32.616Z</time></trkpt><trkpt lat="45.5163627" lon="9.2162395"><ele>139.0</ele><time>2026-04-30T16:32:33.617Z</time></trkpt><trkpt lat="45.5162072" lon="9.216155"><ele>139.0</ele><time>2026-04-30T16:32:34.616Z</time></trkpt><trkpt lat="45.5160467" lon="9.2160681"><ele>139.0</ele><time>2026-04-30T16:32:35.617Z</time></trkpt><trkpt lat="45.5158882" lon="9.2159821"><ele>139.0</ele><time>2026-04-30T16:32:36.616Z</time></trkpt><trkpt lat="45.5157248" lon="9.2158902"><ele>139.0</ele><time>2026-04-30T16:32:37.616Z</time></trkpt><trkpt lat="45.515553" lon="9.2157933"><ele>139.0</ele><time>2026-04-30T16:32:38.616Z</time></trkpt><trkpt lat="45.5153816" lon="9.2156951"><ele>139.0</ele><time>2026-04-30T16:32:39.616Z</time></trkpt><trkpt lat="45.5152008" lon="9.2155923"><ele>137.33333333333334</ele><time>2026-04-30T16:32:40.616Z</time></trkpt><trkpt lat="45.5150325" lon="9.2154911"><ele>135.66666666666666</ele><time>2026-04-30T16:32:41.616Z</time></trkpt><trkpt lat="45.5148645" lon="9.2153765"><ele>134.0</ele><time>2026-04-30T16:32:42.617Z</time></trkpt><trkpt lat="45.5146968" lon="9.2152492"><ele>133.66666666666666</ele><time>2026-04-30T16:32:43.617Z</time></trkpt><trkpt lat="45.5145381" lon="9.2151232"><ele>133.33333333333334</ele><time>2026-04-30T16:32:44.617Z</time></trkpt><trkpt lat="45.5143888" lon="9.2150023"><ele>133.0</ele><time>2026-04-30T16:32:45.617Z</time></trkpt><trkpt lat="45.5142481" lon="9.2148889"><ele>133.25</ele><time>2026-04-30T16:32:46.616Z</time></trkpt><trkpt lat="45.5141179" lon="9.2147846"><ele>133.5</ele><time>2026-04-30T16:32:47.617Z</time></trkpt><trkpt lat="45.5139983" lon="9.2146885"><ele>133.75</ele><time>2026-04-30T16:32:48.617Z</time></trkpt><trkpt lat="45.5139001" lon="9.2146076"><ele>134.0</ele><time>2026-04-30T16:32:49.617Z</time></trkpt><trkpt lat="45.5138104" lon="9.2145295"><ele>134.25</ele><time>2026-04-30T16:32:50.616Z</time></trkpt><trkpt lat="45.51372" lon="9.214448"><ele>134.5</ele><time>2026-04-30T16:32:51.617Z</time></trkpt><trkpt lat="45.5136301" lon="9.2143583"><ele>134.75</ele><time>2026-04-30T16:32:52.616Z</time></trkpt><trkpt lat="45.5135304" lon="9.2142559"><ele>135.0</ele><time>2026-04-30T16:32:53.617Z</time></trkpt><trkpt lat="45.5134255" lon="9.2141584"><ele>135.0</ele><time>2026-04-30T16:32:54.617Z</time></trkpt><trkpt lat="45.5133131" lon="9.2140612"><ele>135.0</ele><time>2026-04-30T16:32:55.617Z</time></trkpt><trkpt lat="45.513195" lon="9.2139625"><ele>135.0</ele><time>2026-04-30T16:32:56.616Z</time></trkpt><trkpt lat="45.5130799" lon="9.2138673"><ele>135.0</ele><time>2026-04-30T16:32:57.616Z</time></trkpt><trkpt lat="45.5129646" lon="9.213771"><ele>134.5</ele><time>2026-04-30T16:32:58.616Z</time></trkpt><trkpt lat="45.5128517" lon="9.2136759"><ele>134.0</ele><time>2026-04-30T16:32:59.616Z</time></trkpt><trkpt lat="45.5127413" lon="9.2135829"><ele>133.5</ele><time>2026-04-30T16:33:00.617Z</time></trkpt><trkpt lat="45.5126345" lon="9.2134934"><ele>133.0</ele><time>2026-04-30T16:33:01.617Z</time></trkpt><trkpt lat="45.5125313" lon="9.2134092"><ele>133.0</ele><time>2026-04-30T16:33:02.616Z</time></trkpt><trkpt lat="45.5124368" lon="9.2133335"><ele>133.0</ele><time>2026-04-30T16:33:03.616Z</time></trkpt><trkpt lat="45.5123348" lon="9.2132628"><ele>133.0</ele><time>2026-04-30T16:33:04.616Z</time></trkpt><trkpt lat="45.5122287" lon="9.2131983"><ele>133.0</ele><time>2026-04-30T16:33:05.616Z</time></trkpt><trkpt lat="45.5121099" lon="9.2131332"><ele>133.5</ele><time>2026-04-30T16:33:06.616Z</time></trkpt><trkpt lat="45.5119848" lon="9.2130653"><ele>134.0</ele><time>2026-04-30T16:33:07.616Z</time></trkpt><trkpt lat="45.5118486" lon="9.2129915"><ele>134.5</ele><time>2026-04-30T16:33:08.617Z</time></trkpt><trkpt lat="45.5117113" lon="9.2129164"><ele>135.0</ele><time>2026-04-30T16:33:09.617Z</time></trkpt><trkpt lat="45.5115684" lon="9.2128373"><ele>135.0</ele><time>2026-04-30T16:33:10.616Z</time></trkpt><trkpt lat="45.5114274" lon="9.2127578"><ele>135.0</ele><time>2026-04-30T16:33:11.616Z</time></trkpt><trkpt lat="45.5112725" lon="9.2126707"><ele>135.0</ele><time>2026-04-30T16:33:12.616Z</time></trkpt><trkpt lat="45.5111217" lon="9.2125858"><ele>134.66666666666666</ele><time>2026-04-30T16:33:13.616Z</time></trkpt><trkpt lat="45.5109695" lon="9.2125018"><ele>134.33333333333331</ele><time>2026-04-30T16:33:14.617Z</time></trkpt><trkpt lat="45.5108178" lon="9.2124189"><ele>134.0</ele><time>2026-04-30T16:33:15.616Z</time></trkpt><trkpt lat="45.510667" lon="9.2123373"><ele>134.0</ele><time>2026-04-30T16:33:16.617Z</time></trkpt><trkpt lat="45.510525" lon="9.2122605"><ele>134.0</ele><time>2026-04-30T16:33:17.616Z</time></trkpt><trkpt lat="45.5103897" lon="9.2121872"><ele>134.0</ele><time>2026-04-30T16:33:18.617Z</time></trkpt><trkpt lat="45.510267" lon="9.2121202"><ele>134.0</ele><time>2026-04-30T16:33:19.616Z</time></trkpt><trkpt lat="45.510147" lon="9.2120534"><ele>133.6</ele><time>2026-04-30T16:33:20.616Z</time></trkpt><trkpt lat="45.5100467" lon="9.2119977"><ele>133.2</ele><time>2026-04-30T16:33:21.616Z</time></trkpt><trkpt lat="45.5099509" lon="9.2119434"><ele>132.79999999999998</ele><time>2026-04-30T16:33:22.616Z</time></trkpt><trkpt lat="45.5098644" lon="9.2118807"><ele>132.4</ele><time>2026-04-30T16:33:23.616Z</time></trkpt><trkpt lat="45.5097893" lon="9.2118008"><ele>132.0</ele><time>2026-04-30T16:33:24.616Z</time></trkpt><trkpt lat="45.5097299" lon="9.2116999"><ele>132.0</ele><time>2026-04-30T16:33:25.616Z</time></trkpt><trkpt lat="45.5096873" lon="9.2115745"><ele>132.0</ele><time>2026-04-30T16:33:26.617Z</time></trkpt><trkpt lat="45.5096508" lon="9.2114386"><ele>132.0</ele><time>2026-04-30T16:33:27.616Z</time></trkpt><trkpt lat="45.5096124" lon="9.2112817"><ele>132.0</ele><time>2026-04-30T16:33:28.617Z</time></trkpt><trkpt lat="45.5095745" lon="9.2111246"><ele>132.0</ele><time>2026-04-30T16:33:29.617Z</time></trkpt><trkpt lat="45.5095364" lon="9.2109658"><ele>131.79999999999998</ele><time>2026-04-30T16:33:30.616Z</time></trkpt><trkpt lat="45.5094976" lon="9.2108113"><ele>131.6</ele><time>2026-04-30T16:33:31.617Z</time></trkpt><trkpt lat="45.5094627" lon="9.2106727"><ele>131.39999999999998</ele><time>2026-04-30T16:33:32.616Z</time></trkpt><trkpt lat="45.5094268" lon="9.2105429"><ele>131.2</ele><time>2026-04-30T16:33:33.616Z</time></trkpt><trkpt lat="45.5093967" lon="9.2104352"><ele>131.0</ele><time>2026-04-30T16:33:34.617Z</time></trkpt><trkpt lat="45.5093717" lon="9.2103403"><ele>131.0</ele><time>2026-04-30T16:33:35.617Z</time></trkpt><trkpt lat="45.5093599" lon="9.210252"><ele>131.0</ele><time>2026-04-30T16:33:36.617Z</time></trkpt><trkpt lat="45.5093721" lon="9.2100776"><ele>131.0</ele><time>2026-04-30T16:33:38.616Z</time></trkpt><trkpt lat="45.5093512" lon="9.2099847"><ele>131.0</ele><time>2026-04-30T16:33:39.616Z</time></trkpt><trkpt lat="45.5093008" lon="9.2099142"><ele>131.0</ele><time>2026-04-30T16:33:40.617Z</time></trkpt><trkpt lat="45.5092278" lon="9.2098515"><ele>131.0</ele><time>2026-04-30T16:33:41.616Z</time></trkpt><trkpt lat="45.5091445" lon="9.2097941"><ele>131.2</ele><time>2026-04-30T16:33:42.616Z</time></trkpt><trkpt lat="45.5090621" lon="9.2097335"><ele>131.39999999999998</ele><time>2026-04-30T16:33:43.616Z</time></trkpt><trkpt lat="45.508986" lon="9.2096542"><ele>131.6</ele><time>2026-04-30T16:33:44.617Z</time></trkpt><trkpt lat="45.5089221" lon="9.209553"><ele>131.79999999999998</ele><time>2026-04-30T16:33:45.616Z</time></trkpt><trkpt lat="45.508865" lon="9.2094533"><ele>132.0</ele><time>2026-04-30T16:33:46.616Z</time></trkpt><trkpt lat="45.5088093" lon="9.2093547"><ele>132.0</ele><time>2026-04-30T16:33:48.616Z</time></trkpt><trkpt lat="45.5087661" lon="9.2092887"><ele>132.0</ele><time>2026-04-30T16:34:42.616Z</time></trkpt><trkpt lat="45.5087223" lon="9.2092139"><ele>132.0</ele><time>2026-04-30T16:34:44.616Z</time></trkpt><trkpt lat="45.5086522" lon="9.2090988"><ele>132.0</ele><time>2026-04-30T16:34:46.617Z</time></trkpt><trkpt lat="45.5086031" lon="9.2090266"><ele>132.0</ele><time>2026-04-30T16:34:47.616Z</time></trkpt><trkpt lat="45.5085486" lon="9.208949"><ele>132.0</ele><time>2026-04-30T16:34:48.617Z</time></trkpt><trkpt lat="45.508494" lon="9.2088708"><ele>131.83333333333334</ele><time>2026-04-30T16:34:49.617Z</time></trkpt><trkpt lat="45.5084397" lon="9.2087902"><ele>131.66666666666666</ele><time>2026-04-30T16:34:50.616Z</time></trkpt><trkpt lat="45.5083822" lon="9.2087055"><ele>131.5</ele><time>2026-04-30T16:34:51.616Z</time></trkpt><trkpt lat="45.5083263" lon="9.2086271"><ele>131.33333333333331</ele><time>2026-04-30T16:34:52.617Z</time></trkpt><trkpt lat="45.5082692" lon="9.2085467"><ele>131.16666666666666</ele><time>2026-04-30T16:34:53.616Z</time></trkpt><trkpt lat="45.5082171" lon="9.2084623"><ele>131.0</ele><time>2026-04-30T16:34:54.617Z</time></trkpt><trkpt lat="45.5081675" lon="9.2083765"><ele>131.0</ele><time>2026-04-30T16:34:55.617Z</time></trkpt><trkpt lat="45.5081186" lon="9.2082902"><ele>131.0</ele><time>2026-04-30T16:34:56.616Z</time></trkpt><trkpt lat="45.5080726" lon="9.2082085"><ele>131.0</ele><time>2026-04-30T16:34:57.617Z</time></trkpt><trkpt lat="45.5080285" lon="9.2081308"><ele>131.0</ele><time>2026-04-30T16:34:58.616Z</time></trkpt><trkpt lat="45.5079851" lon="9.2080547"><ele>131.0</ele><time>2026-04-30T16:34:59.616Z</time></trkpt><trkpt lat="45.5079085" lon="9.207921"><ele>131.0</ele><time>2026-04-30T16:35:01.617Z</time></trkpt><trkpt lat="45.5078426" lon="9.2078106"><ele>131.2</ele><time>2026-04-30T16:35:03.616Z</time></trkpt><trkpt lat="45.5077877" lon="9.2077078"><ele>131.39999999999998</ele><time>2026-04-30T16:35:05.617Z</time></trkpt><trkpt lat="45.5077314" lon="9.2075996"><ele>131.6</ele><time>2026-04-30T16:35:07.617Z</time></trkpt><trkpt lat="45.5076632" lon="9.2075051"><ele>131.79999999999998</ele><time>2026-04-30T16:35:09.616Z</time></trkpt><trkpt lat="45.5075632" lon="9.2074722"><ele>132.0</ele><time>2026-04-30T16:35:11.617Z</time></trkpt><trkpt lat="45.5074383" lon="9.2074887"><ele>132.0</ele><time>2026-04-30T16:35:13.617Z</time></trkpt><trkpt lat="45.5073738" lon="9.2074968"><ele>132.0</ele><time>2026-04-30T16:35:14.616Z</time></trkpt><trkpt lat="45.5073077" lon="9.2075051"><ele>132.0</ele><time>2026-04-30T16:35:15.616Z</time></trkpt><trkpt lat="45.5072434" lon="9.2075122"><ele>132.0</ele><time>2026-04-30T16:35:16.617Z</time></trkpt><trkpt lat="45.5071309" lon="9.2075209"><ele>132.0</ele><time>2026-04-30T16:35:18.616Z</time></trkpt><trkpt lat="45.5070422" lon="9.2075153"><ele>132.0</ele><time>2026-04-30T16:35:20.617Z</time></trkpt><trkpt lat="45.5069924" lon="9.2074061"><ele>132.2</ele><time>2026-04-30T16:35:23.616Z</time></trkpt><trkpt lat="45.5069911" lon="9.2072879"><ele>132.39999999999998</ele><time>2026-04-30T16:35:25.616Z</time></trkpt><trkpt lat="45.5069834" lon="9.2071353"><ele>132.60000000000002</ele><time>2026-04-30T16:35:27.616Z</time></trkpt><trkpt lat="45.5069739" lon="9.2069578"><ele>132.8</ele><time>2026-04-30T16:35:29.617Z</time></trkpt><trkpt lat="45.5069692" lon="9.206863"><ele>133.0</ele><time>2026-04-30T16:35:30.616Z</time></trkpt><trkpt lat="45.5069642" lon="9.2067601"><ele>133.0</ele><time>2026-04-30T16:35:31.616Z</time></trkpt><trkpt lat="45.5069594" lon="9.2066619"><ele>133.0</ele><time>2026-04-30T16:35:32.617Z</time></trkpt><trkpt lat="45.5069548" lon="9.2065715"><ele>133.0</ele><time>2026-04-30T16:35:33.617Z</time></trkpt><trkpt lat="45.5069491" lon="9.2064809"><ele>133.0</ele><time>2026-04-30T16:35:34.616Z</time></trkpt><trkpt lat="45.5069379" lon="9.2062989"><ele>133.0</ele><time>2026-04-30T16:35:36.616Z</time></trkpt><trkpt lat="45.5069332" lon="9.2062093"><ele>133.0</ele><time>2026-04-30T16:35:37.616Z</time></trkpt><trkpt lat="45.5069296" lon="9.2061169"><ele>132.71428571428572</ele><time>2026-04-30T16:35:38.616Z</time></trkpt><trkpt lat="45.506925" lon="9.206022"><ele>132.42857142857144</ele><time>2026-04-30T16:35:39.617Z</time></trkpt><trkpt lat="45.5069222" lon="9.2059308"><ele>132.14285714285714</ele><time>2026-04-30T16:35:40.616Z</time></trkpt><trkpt lat="45.5069182" lon="9.2058321"><ele>131.85714285714286</ele><time>2026-04-30T16:35:41.616Z</time></trkpt><trkpt lat="45.5069136" lon="9.2057303"><ele>131.57142857142858</ele><time>2026-04-30T16:35:42.617Z</time></trkpt><trkpt lat="45.5069118" lon="9.2056231"><ele>131.28571428571428</ele><time>2026-04-30T16:35:43.616Z</time></trkpt><trkpt lat="45.5069164" lon="9.2055095"><ele>131.0</ele><time>2026-04-30T16:35:44.616Z</time></trkpt><trkpt lat="45.5069283" lon="9.2053953"><ele>131.0</ele><time>2026-04-30T16:35:45.617Z</time></trkpt><trkpt lat="45.5069472" lon="9.2052867"><ele>131.0</ele><time>2026-04-30T16:35:46.617Z</time></trkpt><trkpt lat="45.5069743" lon="9.205172"><ele>131.0</ele><time>2026-04-30T16:35:47.617Z</time></trkpt><trkpt lat="45.5070063" lon="9.205072"><ele>131.0</ele><time>2026-04-30T16:35:48.616Z</time></trkpt><trkpt lat="45.5070454" lon="9.2049743"><ele>131.0</ele><time>2026-04-30T16:35:49.617Z</time></trkpt><trkpt lat="45.507087" lon="9.2048866"><ele>131.0</ele><time>2026-04-30T16:35:50.617Z</time></trkpt><trkpt lat="45.5071306" lon="9.204807"><ele>130.83333333333331</ele><time>2026-04-30T16:35:51.617Z</time></trkpt><trkpt lat="45.5071778" lon="9.2047313"><ele>130.66666666666666</ele><time>2026-04-30T16:35:52.617Z</time></trkpt><trkpt lat="45.5072535" lon="9.2046202"><ele>130.5</ele><time>2026-04-30T16:35:54.616Z</time></trkpt><trkpt lat="45.5073118" lon="9.2045429"><ele>130.33333333333334</ele><time>2026-04-30T16:35:56.617Z</time></trkpt><trkpt lat="45.5073582" lon="9.204481"><ele>130.16666666666669</ele><time>2026-04-30T16:35:59.617Z</time></trkpt><trkpt lat="45.507417" lon="9.2044408"><ele>130.0</ele><time>2026-04-30T16:36:26.602Z</time></trkpt><trkpt lat="45.5074589" lon="9.2043728"><ele>130.0</ele><time>2026-04-30T16:36:28.602Z</time></trkpt><trkpt lat="45.5075046" lon="9.2042966"><ele>130.0</ele><time>2026-04-30T16:36:30.603Z</time></trkpt><trkpt lat="45.5075346" lon="9.204206"><ele>130.0</ele><time>2026-04-30T16:36:32.603Z</time></trkpt><trkpt lat="45.5075159" lon="9.2041037"><ele>130.0</ele><time>2026-04-30T16:36:34.603Z</time></trkpt><trkpt lat="45.5074204" lon="9.2040295"><ele>130.0</ele><time>2026-04-30T16:36:36.603Z</time></trkpt><trkpt lat="45.5073017" lon="9.2039648"><ele>130.33333333333334</ele><time>2026-04-30T16:36:38.602Z</time></trkpt><trkpt lat="45.507242" lon="9.2039326"><ele>130.66666666666669</ele><time>2026-04-30T16:36:39.603Z</time></trkpt><trkpt lat="45.5071746" lon="9.2038974"><ele>131.0</ele><time>2026-04-30T16:36:40.602Z</time></trkpt><trkpt lat="45.5070984" lon="9.2038572"><ele>131.33333333333334</ele><time>2026-04-30T16:36:41.604Z</time></trkpt><trkpt lat="45.5070168" lon="9.2038129"><ele>131.66666666666666</ele><time>2026-04-30T16:36:42.603Z</time></trkpt><trkpt lat="45.5069318" lon="9.2037639"><ele>132.0</ele><time>2026-04-30T16:36:43.602Z</time></trkpt><trkpt lat="45.506845" lon="9.203716"><ele>132.0</ele><time>2026-04-30T16:36:44.603Z</time></trkpt><trkpt lat="45.5067601" lon="9.2036622"><ele>132.0</ele><time>2026-04-30T16:36:45.604Z</time></trkpt><trkpt lat="45.5066817" lon="9.2035946"><ele>132.0</ele><time>2026-04-30T16:36:46.603Z</time></trkpt><trkpt lat="45.5066009" lon="9.2035259"><ele>132.0</ele><time>2026-04-30T16:36:47.604Z</time></trkpt><trkpt lat="45.5065212" lon="9.2034535"><ele>132.0</ele><time>2026-04-30T16:36:48.602Z</time></trkpt><trkpt lat="45.5064387" lon="9.2033788"><ele>132.0</ele><time>2026-04-30T16:36:49.603Z</time></trkpt><trkpt lat="45.5063519" lon="9.2033019"><ele>132.0</ele><time>2026-04-30T16:36:50.602Z</time></trkpt><trkpt lat="45.5062606" lon="9.2032262"><ele>132.0</ele><time>2026-04-30T16:36:51.603Z</time></trkpt><trkpt lat="45.5061654" lon="9.2031453"><ele>132.0</ele><time>2026-04-30T16:36:52.603Z</time></trkpt><trkpt lat="45.5060681" lon="9.2030524"><ele>132.0</ele><time>2026-04-30T16:36:53.593Z</time></trkpt><trkpt lat="45.5059758" lon="9.2029695"><ele>132.0</ele><time>2026-04-30T16:36:54.599Z</time></trkpt><trkpt lat="45.5058763" lon="9.2028822"><ele>132.0</ele><time>2026-04-30T16:36:55.593Z</time></trkpt><trkpt lat="45.5057807" lon="9.2027945"><ele>132.0</ele><time>2026-04-30T16:36:56.603Z</time></trkpt><trkpt lat="45.5056857" lon="9.2027096"><ele>132.0</ele><time>2026-04-30T16:36:57.597Z</time></trkpt><trkpt lat="45.5055932" lon="9.2026241"><ele>132.0</ele><time>2026-04-30T16:36:58.607Z</time></trkpt><trkpt lat="45.5054956" lon="9.2025351"><ele>132.0</ele><time>2026-04-30T16:36:59.606Z</time></trkpt><trkpt lat="45.5054008" lon="9.2024522"><ele>132.0</ele><time>2026-04-30T16:37:00.606Z</time></trkpt><trkpt lat="45.5053052" lon="9.2023649"><ele>132.0</ele><time>2026-04-30T16:37:01.607Z</time></trkpt><trkpt lat="45.5052123" lon="9.2022832"><ele>132.4</ele><time>2026-04-30T16:37:02.607Z</time></trkpt><trkpt lat="45.5051205" lon="9.2022035"><ele>132.79999999999998</ele><time>2026-04-30T16:37:03.606Z</time></trkpt><trkpt lat="45.5050293" lon="9.2021224"><ele>133.2</ele><time>2026-04-30T16:37:04.606Z</time></trkpt><trkpt lat="45.5049418" lon="9.2020433"><ele>133.6</ele><time>2026-04-30T16:37:05.606Z</time></trkpt><trkpt lat="45.5048541" lon="9.2019631"><ele>134.0</ele><time>2026-04-30T16:37:06.606Z</time></trkpt><trkpt lat="45.5047619" lon="9.2018813"><ele>134.0</ele><time>2026-04-30T16:37:07.607Z</time></trkpt><trkpt lat="45.5046722" lon="9.2017998"><ele>134.0</ele><time>2026-04-30T16:37:08.607Z</time></trkpt><trkpt lat="45.5045788" lon="9.2017159"><ele>134.0</ele><time>2026-04-30T16:37:09.606Z</time></trkpt><trkpt lat="45.5044854" lon="9.2016332"><ele>134.0</ele><time>2026-04-30T16:37:10.607Z</time></trkpt><trkpt lat="45.5043961" lon="9.2015507"><ele>134.0</ele><time>2026-04-30T16:37:11.607Z</time></trkpt><trkpt lat="45.5043079" lon="9.2014706"><ele>133.4</ele><time>2026-04-30T16:37:12.606Z</time></trkpt><trkpt lat="45.5042266" lon="9.2013953"><ele>132.8</ele><time>2026-04-30T16:37:13.606Z</time></trkpt><trkpt lat="45.5041499" lon="9.2013205"><ele>132.2</ele><time>2026-04-30T16:37:14.606Z</time></trkpt><trkpt lat="45.50407" lon="9.2012473"><ele>131.6</ele><time>2026-04-30T16:37:15.606Z</time></trkpt><trkpt lat="45.5039896" lon="9.201178"><ele>131.0</ele><time>2026-04-30T16:37:16.606Z</time></trkpt><trkpt lat="45.5038921" lon="9.2010976"><ele>131.0</ele><time>2026-04-30T16:37:17.606Z</time></trkpt><trkpt lat="45.5037872" lon="9.2010247"><ele>131.0</ele><time>2026-04-30T16:37:18.607Z</time></trkpt><trkpt lat="45.5036756" lon="9.2009537"><ele>131.0</ele><time>2026-04-30T16:37:19.606Z</time></trkpt><trkpt lat="45.5035434" lon="9.2008949"><ele>131.0</ele><time>2026-04-30T16:37:20.607Z</time></trkpt><trkpt lat="45.503408" lon="9.2008184"><ele>130.33333333333331</ele><time>2026-04-30T16:37:21.607Z</time></trkpt><trkpt lat="45.5032672" lon="9.2007398"><ele>129.66666666666666</ele><time>2026-04-30T16:37:22.606Z</time></trkpt><trkpt lat="45.5031164" lon="9.200657"><ele>129.0</ele><time>2026-04-30T16:37:23.607Z</time></trkpt><trkpt lat="45.5029709" lon="9.2005787"><ele>129.33333333333334</ele><time>2026-04-30T16:37:24.606Z</time></trkpt><trkpt lat="45.502823" lon="9.200493"><ele>129.66666666666669</ele><time>2026-04-30T16:37:25.607Z</time></trkpt><trkpt lat="45.5026777" lon="9.2004103"><ele>130.0</ele><time>2026-04-30T16:37:26.607Z</time></trkpt><trkpt lat="45.5025335" lon="9.2003292"><ele>130.0</ele><time>2026-04-30T16:37:27.607Z</time></trkpt><trkpt lat="45.5023885" lon="9.2002485"><ele>130.0</ele><time>2026-04-30T16:37:28.607Z</time></trkpt><trkpt lat="45.5022492" lon="9.2001709"><ele>130.0</ele><time>2026-04-30T16:37:29.606Z</time></trkpt><trkpt lat="45.5021232" lon="9.2000957"><ele>130.0</ele><time>2026-04-30T16:37:30.607Z</time></trkpt><trkpt lat="45.5020013" lon="9.2000261"><ele>130.16666666666669</ele><time>2026-04-30T16:37:31.606Z</time></trkpt><trkpt lat="45.5018978" lon="9.1999667"><ele>130.33333333333334</ele><time>2026-04-30T16:37:32.606Z</time></trkpt><trkpt lat="45.5018036" lon="9.1999106"><ele>130.5</ele><time>2026-04-30T16:37:33.606Z</time></trkpt><trkpt lat="45.5017246" lon="9.199859"><ele>130.66666666666666</ele><time>2026-04-30T16:37:34.607Z</time></trkpt><trkpt lat="45.5016536" lon="9.1998154"><ele>130.83333333333331</ele><time>2026-04-30T16:37:35.607Z</time></trkpt><trkpt lat="45.5015883" lon="9.1997773"><ele>131.0</ele><time>2026-04-30T16:37:36.606Z</time></trkpt><trkpt lat="45.5015282" lon="9.1997436"><ele>131.33333333333331</ele><time>2026-04-30T16:37:37.607Z</time></trkpt><trkpt lat="45.5014694" lon="9.1997104"><ele>131.66666666666666</ele><time>2026-04-30T16:37:38.606Z</time></trkpt><trkpt lat="45.5013563" lon="9.1996434"><ele>132.0</ele><time>2026-04-30T16:37:40.606Z</time></trkpt><trkpt lat="45.5012971" lon="9.1996107"><ele>132.33333333333334</ele><time>2026-04-30T16:37:41.606Z</time></trkpt><trkpt lat="45.5012317" lon="9.1995701"><ele>132.66666666666669</ele><time>2026-04-30T16:37:42.606Z</time></trkpt><trkpt lat="45.5011583" lon="9.1995188"><ele>133.0</ele><time>2026-04-30T16:37:43.607Z</time></trkpt><trkpt lat="45.5010714" lon="9.1994631"><ele>133.66666666666669</ele><time>2026-04-30T16:37:44.606Z</time></trkpt><trkpt lat="45.5009863" lon="9.1994166"><ele>134.33333333333334</ele><time>2026-04-30T16:37:45.607Z</time></trkpt><trkpt lat="45.5009" lon="9.1993674"><ele>135.0</ele><time>2026-04-30T16:37:46.606Z</time></trkpt><trkpt lat="45.5008235" lon="9.1993328"><ele>135.66666666666666</ele><time>2026-04-30T16:37:47.607Z</time></trkpt><trkpt lat="45.5007601" lon="9.1993057"><ele>136.33333333333331</ele><time>2026-04-30T16:37:48.607Z</time></trkpt><trkpt lat="45.5006657" lon="9.1992432"><ele>137.0</ele><time>2026-04-30T16:37:50.607Z</time></trkpt><trkpt lat="45.5005752" lon="9.1991892"><ele>137.0</ele><time>2026-04-30T16:37:52.606Z</time></trkpt><trkpt lat="45.5004785" lon="9.1991327"><ele>137.0</ele><time>2026-04-30T16:37:54.607Z</time></trkpt><trkpt lat="45.5003691" lon="9.1990682"><ele>137.0</ele><time>2026-04-30T16:37:56.607Z</time></trkpt><trkpt lat="45.5002601" lon="9.1990068"><ele>137.0</ele><time>2026-04-30T16:37:58.607Z</time></trkpt><trkpt lat="45.5001455" lon="9.1989491"><ele>137.2</ele><time>2026-04-30T16:38:00.607Z</time></trkpt><trkpt lat="45.5000346" lon="9.1988988"><ele>137.39999999999998</ele><time>2026-04-30T16:38:02.607Z</time></trkpt><trkpt lat="45.4999374" lon="9.1988464"><ele>137.60000000000002</ele><time>2026-04-30T16:38:04.607Z</time></trkpt><trkpt lat="45.4998206" lon="9.1987867"><ele>137.8</ele><time>2026-04-30T16:38:06.607Z</time></trkpt><trkpt lat="45.4997547" lon="9.1987533"><ele>138.0</ele><time>2026-04-30T16:38:07.607Z</time></trkpt><trkpt lat="45.4996879" lon="9.1987173"><ele>138.0</ele><time>2026-04-30T16:38:08.607Z</time></trkpt><trkpt lat="45.499629" lon="9.1986841"><ele>138.0</ele><time>2026-04-30T16:38:09.607Z</time></trkpt><trkpt lat="45.4995263" lon="9.1986265"><ele>138.0</ele><time>2026-04-30T16:38:11.607Z</time></trkpt><trkpt lat="45.4994556" lon="9.1985868"><ele>138.0</ele><time>2026-04-30T16:38:13.606Z</time></trkpt><trkpt lat="45.499389" lon="9.1985487"><ele>138.0</ele><time>2026-04-30T16:38:17.606Z</time></trkpt><trkpt lat="45.4993155" lon="9.1985103"><ele>138.0</ele><time>2026-04-30T16:38:20.606Z</time></trkpt><trkpt lat="45.4992471" lon="9.1984708"><ele>137.5</ele><time>2026-04-30T16:38:22.606Z</time></trkpt><trkpt lat="45.4991534" lon="9.1984163"><ele>137.0</ele><time>2026-04-30T16:38:24.607Z</time></trkpt><trkpt lat="45.4990411" lon="9.1983518"><ele>136.5</ele><time>2026-04-30T16:38:26.606Z</time></trkpt><trkpt lat="45.498977" lon="9.1983144"><ele>136.0</ele><time>2026-04-30T16:38:27.606Z</time></trkpt><trkpt lat="45.4989149" lon="9.1982806"><ele>135.5</ele><time>2026-04-30T16:38:28.606Z</time></trkpt><trkpt lat="45.4988489" lon="9.1982425"><ele>135.0</ele><time>2026-04-30T16:38:29.607Z</time></trkpt><trkpt lat="45.4987826" lon="9.1982056"><ele>135.0</ele><time>2026-04-30T16:38:30.606Z</time></trkpt><trkpt lat="45.4987097" lon="9.1981645"><ele>135.0</ele><time>2026-04-30T16:38:31.606Z</time></trkpt><trkpt lat="45.4986362" lon="9.1981246"><ele>135.0</ele><time>2026-04-30T16:38:32.606Z</time></trkpt><trkpt lat="45.4985666" lon="9.1980851"><ele>135.0</ele><time>2026-04-30T16:38:33.607Z</time></trkpt><trkpt lat="45.4984948" lon="9.1980482"><ele>135.0</ele><time>2026-04-30T16:38:34.607Z</time></trkpt><trkpt lat="45.4984209" lon="9.1980076"><ele>135.0</ele><time>2026-04-30T16:38:35.606Z</time></trkpt><trkpt lat="45.498347" lon="9.1979669"><ele>135.0</ele><time>2026-04-30T16:38:36.606Z</time></trkpt><trkpt lat="45.4982724" lon="9.1979245"><ele>135.0</ele><time>2026-04-30T16:38:37.607Z</time></trkpt><trkpt lat="45.4981953" lon="9.1978825"><ele>135.0</ele><time>2026-04-30T16:38:38.607Z</time></trkpt><trkpt lat="45.4981174" lon="9.1978402"><ele>135.0</ele><time>2026-04-30T16:38:39.607Z</time></trkpt><trkpt lat="45.498038" lon="9.197796"><ele>135.0</ele><time>2026-04-30T16:38:40.607Z</time></trkpt><trkpt lat="45.4979597" lon="9.1977528"><ele>135.0</ele><time>2026-04-30T16:38:41.606Z</time></trkpt><trkpt lat="45.4978817" lon="9.1977094"><ele>134.66666666666666</ele><time>2026-04-30T16:38:42.607Z</time></trkpt><trkpt lat="45.4978046" lon="9.197666"><ele>134.33333333333334</ele><time>2026-04-30T16:38:43.606Z</time></trkpt><trkpt lat="45.4977319" lon="9.1976244"><ele>134.0</ele><time>2026-04-30T16:38:44.607Z</time></trkpt><trkpt lat="45.4976591" lon="9.1975832"><ele>133.66666666666669</ele><time>2026-04-30T16:38:45.607Z</time></trkpt><trkpt lat="45.4975903" lon="9.1975437"><ele>133.33333333333334</ele><time>2026-04-30T16:38:46.607Z</time></trkpt><trkpt lat="45.4975229" lon="9.1975052"><ele>133.0</ele><time>2026-04-30T16:38:47.606Z</time></trkpt><trkpt lat="45.4974534" lon="9.197466"><ele>133.0</ele><time>2026-04-30T16:38:48.606Z</time></trkpt><trkpt lat="45.4973864" lon="9.1974291"><ele>133.0</ele><time>2026-04-30T16:38:49.606Z</time></trkpt><trkpt lat="45.4973175" lon="9.1973902"><ele>133.0</ele><time>2026-04-30T16:38:50.606Z</time></trkpt><trkpt lat="45.4972458" lon="9.197349"><ele>133.0</ele><time>2026-04-30T16:38:51.606Z</time></trkpt><trkpt lat="45.4971736" lon="9.1973083"><ele>133.0</ele><time>2026-04-30T16:38:52.607Z</time></trkpt><trkpt lat="45.4970963" lon="9.1972636"><ele>133.0</ele><time>2026-04-30T16:38:53.606Z</time></trkpt><trkpt lat="45.4970143" lon="9.1972182"><ele>132.4</ele><time>2026-04-30T16:38:54.606Z</time></trkpt><trkpt lat="45.4969269" lon="9.1971678"><ele>131.8</ele><time>2026-04-30T16:38:55.607Z</time></trkpt><trkpt lat="45.4968321" lon="9.1971128"><ele>131.2</ele><time>2026-04-30T16:38:56.607Z</time></trkpt><trkpt lat="45.4967371" lon="9.1970581"><ele>130.6</ele><time>2026-04-30T16:38:57.607Z</time></trkpt><trkpt lat="45.496643" lon="9.197003"><ele>130.0</ele><time>2026-04-30T16:38:58.607Z</time></trkpt><trkpt lat="45.4965437" lon="9.1969458"><ele>130.0</ele><time>2026-04-30T16:38:59.607Z</time></trkpt><trkpt lat="45.4964501" lon="9.1968927"><ele>130.0</ele><time>2026-04-30T16:39:00.606Z</time></trkpt><trkpt lat="45.496361" lon="9.1968418"><ele>130.0</ele><time>2026-04-30T16:39:01.607Z</time></trkpt><trkpt lat="45.4962726" lon="9.1967928"><ele>130.0</ele><time>2026-04-30T16:39:02.606Z</time></trkpt><trkpt lat="45.4961872" lon="9.1967471"><ele>130.0</ele><time>2026-04-30T16:39:03.607Z</time></trkpt><trkpt lat="45.4961019" lon="9.196702"><ele>129.66666666666669</ele><time>2026-04-30T16:39:04.607Z</time></trkpt><trkpt lat="45.4960237" lon="9.1966596"><ele>129.33333333333334</ele><time>2026-04-30T16:39:05.606Z</time></trkpt><trkpt lat="45.4959499" lon="9.1966187"><ele>129.0</ele><time>2026-04-30T16:39:06.606Z</time></trkpt><trkpt lat="45.4958781" lon="9.1965776"><ele>128.66666666666666</ele><time>2026-04-30T16:39:07.607Z</time></trkpt><trkpt lat="45.4958124" lon="9.1965399"><ele>128.33333333333331</ele><time>2026-04-30T16:39:08.606Z</time></trkpt><trkpt lat="45.4957508" lon="9.1965054"><ele>128.0</ele><time>2026-04-30T16:39:09.606Z</time></trkpt><trkpt lat="45.4956363" lon="9.1964466"><ele>127.99999999999999</ele><time>2026-04-30T16:39:11.606Z</time></trkpt><trkpt lat="45.495562" lon="9.1964056"><ele>128.0</ele><time>2026-04-30T16:39:13.606Z</time></trkpt><trkpt lat="45.4955014" lon="9.1963651"><ele>128.0</ele><time>2026-04-30T16:39:17.607Z</time></trkpt><trkpt lat="45.4954333" lon="9.1963401"><ele>128.0</ele><time>2026-04-30T16:40:15.607Z</time></trkpt><trkpt lat="45.4953532" lon="9.196292"><ele>127.99999999999999</ele><time>2026-04-30T16:40:18.607Z</time></trkpt><trkpt lat="45.4952806" lon="9.1962499"><ele>128.0</ele><time>2026-04-30T16:40:20.607Z</time></trkpt><trkpt lat="45.4951977" lon="9.1962017"><ele>128.0</ele><time>2026-04-30T16:40:22.606Z</time></trkpt><trkpt lat="45.4951088" lon="9.1961531"><ele>128.0</ele><time>2026-04-30T16:40:24.607Z</time></trkpt><trkpt lat="45.495021" lon="9.1961017"><ele>128.0</ele><time>2026-04-30T16:40:26.606Z</time></trkpt><trkpt lat="45.4949336" lon="9.1960522"><ele>128.0</ele><time>2026-04-30T16:40:28.607Z</time></trkpt><trkpt lat="45.4948508" lon="9.196006"><ele>128.0</ele><time>2026-04-30T16:40:30.606Z</time></trkpt><trkpt lat="45.4947678" lon="9.1959581"><ele>128.0</ele><time>2026-04-30T16:40:32.607Z</time></trkpt><trkpt lat="45.4946831" lon="9.1959104"><ele>128.0</ele><time>2026-04-30T16:40:34.606Z</time></trkpt><trkpt lat="45.4945936" lon="9.1958586"><ele>128.0</ele><time>2026-04-30T16:40:36.606Z</time></trkpt><trkpt lat="45.4944977" lon="9.1958061"><ele>128.0</ele><time>2026-04-30T16:40:38.606Z</time></trkpt><trkpt lat="45.4944004" lon="9.1957507"><ele>128.0</ele><time>2026-04-30T16:40:40.607Z</time></trkpt><trkpt lat="45.4943154" lon="9.195701"><ele>127.85714285714285</ele><time>2026-04-30T16:40:42.607Z</time></trkpt><trkpt lat="45.4942362" lon="9.1956561"><ele>127.7142857142857</ele><time>2026-04-30T16:40:44.606Z</time></trkpt><trkpt lat="45.4941656" lon="9.1956163"><ele>127.57142857142857</ele><time>2026-04-30T16:40:46.607Z</time></trkpt><trkpt lat="45.4941048" lon="9.195582"><ele>127.42857142857142</ele><time>2026-04-30T16:40:48.607Z</time></trkpt><trkpt lat="45.4940284" lon="9.1955405"><ele>127.28571428571428</ele><time>2026-04-30T16:40:51.607Z</time></trkpt><trkpt lat="45.4939649" lon="9.1955037"><ele>127.14285714285714</ele><time>2026-04-30T16:40:54.607Z</time></trkpt><trkpt lat="45.4939038" lon="9.1954703"><ele>127.0</ele><time>2026-04-30T16:40:56.606Z</time></trkpt><trkpt lat="45.4938262" lon="9.195426"><ele>127.66666666666667</ele><time>2026-04-30T16:40:58.607Z</time></trkpt><trkpt lat="45.4937327" lon="9.1953725"><ele>128.33333333333334</ele><time>2026-04-30T16:41:00.607Z</time></trkpt><trkpt lat="45.4936298" lon="9.1953138"><ele>129.0</ele><time>2026-04-30T16:41:02.606Z</time></trkpt><trkpt lat="45.4935692" lon="9.1952819"><ele>129.66666666666666</ele><time>2026-04-30T16:41:03.606Z</time></trkpt><trkpt lat="45.4935073" lon="9.1952497"><ele>130.33333333333331</ele><time>2026-04-30T16:41:04.607Z</time></trkpt><trkpt lat="45.4934448" lon="9.1952162"><ele>131.0</ele><time>2026-04-30T16:41:05.607Z</time></trkpt><trkpt lat="45.4933853" lon="9.1951827"><ele>131.0</ele><time>2026-04-30T16:41:06.606Z</time></trkpt><trkpt lat="45.4933252" lon="9.1951485"><ele>131.0</ele><time>2026-04-30T16:41:07.606Z</time></trkpt><trkpt lat="45.4932163" lon="9.1950859"><ele>131.0</ele><time>2026-04-30T16:41:09.607Z</time></trkpt><trkpt lat="45.4931169" lon="9.1950285"><ele>131.0</ele><time>2026-04-30T16:41:11.606Z</time></trkpt><trkpt lat="45.4930243" lon="9.1949766"><ele>131.0</ele><time>2026-04-30T16:41:13.607Z</time></trkpt><trkpt lat="45.4929485" lon="9.1949329"><ele>130.83333333333331</ele><time>2026-04-30T16:41:15.607Z</time></trkpt><trkpt lat="45.4928728" lon="9.1948891"><ele>130.66666666666666</ele><time>2026-04-30T16:41:18.607Z</time></trkpt><trkpt lat="45.4928136" lon="9.1948571"><ele>130.5</ele><time>2026-04-30T16:41:21.607Z</time></trkpt><trkpt lat="45.4927464" lon="9.1948206"><ele>130.33333333333334</ele><time>2026-04-30T16:41:57.607Z</time></trkpt><trkpt lat="45.4926809" lon="9.194785"><ele>130.16666666666669</ele><time>2026-04-30T16:42:04.607Z</time></trkpt><trkpt lat="45.4926074" lon="9.1947447"><ele>130.0</ele><time>2026-04-30T16:42:09.607Z</time></trkpt><trkpt lat="45.4925283" lon="9.1946977"><ele>130.0</ele><time>2026-04-30T16:42:12.606Z</time></trkpt><trkpt lat="45.4924725" lon="9.1946479"><ele>130.0</ele><time>2026-04-30T16:42:14.607Z</time></trkpt><trkpt lat="45.4924247" lon="9.194567"><ele>130.0</ele><time>2026-04-30T16:42:16.606Z</time></trkpt><trkpt lat="45.492396" lon="9.194467"><ele>130.0</ele><time>2026-04-30T16:42:18.606Z</time></trkpt><trkpt lat="45.4923722" lon="9.1943739"><ele>130.0</ele><time>2026-04-30T16:42:21.607Z</time></trkpt><trkpt lat="45.4922972" lon="9.1942883"><ele>130.0</ele><time>2026-04-30T16:42:58.607Z</time></trkpt><trkpt lat="45.4922026" lon="9.1942455"><ele>130.0</ele><time>2026-04-30T16:43:00.607Z</time></trkpt><trkpt lat="45.4920756" lon="9.1942469"><ele>130.0</ele><time>2026-04-30T16:43:02.607Z</time></trkpt><trkpt lat="45.492004" lon="9.1942678"><ele>130.0</ele><time>2026-04-30T16:43:03.607Z</time></trkpt><trkpt lat="45.4919285" lon="9.1942935"><ele>130.0</ele><time>2026-04-30T16:43:04.607Z</time></trkpt><trkpt lat="45.49186" lon="9.1943015"><ele>130.0</ele><time>2026-04-30T16:43:05.606Z</time></trkpt><trkpt lat="45.491711" lon="9.1942378"><ele>130.0</ele><time>2026-04-30T16:43:07.607Z</time></trkpt><trkpt lat="45.4916381" lon="9.1941977"><ele>130.0</ele><time>2026-04-30T16:43:08.606Z</time></trkpt><trkpt lat="45.4915665" lon="9.1941568"><ele>130.0</ele><time>2026-04-30T16:43:09.607Z</time></trkpt><trkpt lat="45.4914894" lon="9.1941136"><ele>130.0</ele><time>2026-04-30T16:43:10.606Z</time></trkpt><trkpt lat="45.4914118" lon="9.1940703"><ele>130.0</ele><time>2026-04-30T16:43:11.606Z</time></trkpt><trkpt lat="45.4913354" lon="9.1940279"><ele>130.0</ele><time>2026-04-30T16:43:12.607Z</time></trkpt><trkpt lat="45.4912685" lon="9.1939968"><ele>127.0</ele><time>2026-04-30T16:43:13.607Z</time></trkpt><trkpt lat="45.4911808" lon="9.1939859"><ele>128.0</ele><time>2026-04-30T16:43:15.607Z</time></trkpt><trkpt lat="45.4911397" lon="9.1940558"><ele>127.0</ele><time>2026-04-30T16:43:20.607Z</time></trkpt><trkpt lat="45.4912103" lon="9.1940443"><ele>127.0</ele><time>2026-04-30T16:43:42.606Z</time></trkpt></trkseg></trk></gpx>